<?xml version='1.0' encoding='UTF-8'?><gpx version="1.1" creator="JPX - https://github.com/jenetics/jpx" xmlns="http://www.topografix.com/GPX/1/1"><trk><trkseg><trkpt lat="46.6027389" lon="12.4792757"><ele>1214.0</ele><time>2026-04-07T04:53:34.558Z</time></trkpt><trkpt lat="46.6026943" lon="12.4793527"><ele>1214.0</ele><time>2026-04-07T04:53:36.558Z</time></trkpt><trkpt lat="46.6026653" lon="12.4794375"><ele>1214.0</ele><time>2026-04-07T04:53:38.478Z</time></trkpt><trkpt lat="46.6026201" lon="12.4795414"><ele>1214.0</ele><time>2026-04-07T04:53:41.558Z</time></trkpt><trkpt lat="46.6025979" lon="12.4797112"><ele>1214.0</ele><time>2026-04-07T04:53:45.573Z</time></trkpt><trkpt lat="46.6026334" lon="12.4797959"><ele>1214.0</ele><time>2026-04-07T04:53:47.55Z</time></trkpt><trkpt lat="46.6027032" lon="12.4798713"><ele>1214.0</ele><time>2026-04-07T04:53:49.549Z</time></trkpt><trkpt lat="46.6027807" lon="12.479933"><ele>1214.0</ele><time>2026-04-07T04:53:51.562Z</time></trkpt><trkpt lat="46.6028802" lon="12.4799215"><ele>1214.0</ele><time>2026-04-07T04:53:52.557Z</time></trkpt><trkpt lat="46.602949" lon="12.479937"><ele>1214.0</ele><time>2026-04-07T04:53:53.558Z</time></trkpt><trkpt lat="46.6030651" lon="12.4799865"><ele>1214.0</ele><time>2026-04-07T04:53:55.558Z</time></trkpt><trkpt lat="46.6031768" lon="12.4800467"><ele>1212.2</ele><time>2026-04-07T04:53:57.558Z</time></trkpt><trkpt lat="46.6032901" lon="12.4801117"><ele>1210.4</ele><time>2026-04-07T04:53:59.558Z</time></trkpt><trkpt lat="46.6034046" lon="12.4801746"><ele>1208.6</ele><time>2026-04-07T04:54:01.557Z</time></trkpt><trkpt lat="46.6035235" lon="12.4802399"><ele>1206.8</ele><time>2026-04-07T04:54:03.558Z</time></trkpt><trkpt lat="46.6035837" lon="12.4802741"><ele>1205.0</ele><time>2026-04-07T04:54:04.558Z</time></trkpt><trkpt lat="46.6036459" lon="12.4802986"><ele>1205.0</ele><time>2026-04-07T04:54:05.557Z</time></trkpt><trkpt lat="46.6037724" lon="12.48032"><ele>1205.0</ele><time>2026-04-07T04:54:07.557Z</time></trkpt><trkpt lat="46.6038948" lon="12.4803136"><ele>1205.0</ele><time>2026-04-07T04:54:09.558Z</time></trkpt><trkpt lat="46.6040159" lon="12.4802854"><ele>1205.0</ele><time>2026-04-07T04:54:11.558Z</time></trkpt><trkpt lat="46.6041378" lon="12.4802538"><ele>1205.0</ele><time>2026-04-07T04:54:13.558Z</time></trkpt><trkpt lat="46.6042589" lon="12.4802149"><ele>1205.0</ele><time>2026-04-07T04:54:15.558Z</time></trkpt><trkpt lat="46.6043204" lon="12.4801928"><ele>1205.0</ele><time>2026-04-07T04:54:16.558Z</time></trkpt><trkpt lat="46.6043823" lon="12.4801741"><ele>1205.0</ele><time>2026-04-07T04:54:17.558Z</time></trkpt><trkpt lat="46.6045044" lon="12.480145"><ele>1205.0</ele><time>2026-04-07T04:54:19.557Z</time></trkpt><trkpt lat="46.6046275" lon="12.4801085"><ele>1204.5</ele><time>2026-04-07T04:54:21.557Z</time></trkpt><trkpt lat="46.6047485" lon="12.4800629"><ele>1204.0</ele><time>2026-04-07T04:54:23.558Z</time></trkpt><trkpt lat="46.6048693" lon="12.4800394"><ele>1203.5</ele><time>2026-04-07T04:54:25.558Z</time></trkpt><trkpt lat="46.6049848" lon="12.4800083"><ele>1203.0</ele><time>2026-04-07T04:54:27.558Z</time></trkpt><trkpt lat="46.6050981" lon="12.4799695"><ele>1203.0</ele><time>2026-04-07T04:54:29.556Z</time></trkpt><trkpt lat="46.6052123" lon="12.4799387"><ele>1203.0</ele><time>2026-04-07T04:54:31.558Z</time></trkpt><trkpt lat="46.605325" lon="12.4799009"><ele>1203.0</ele><time>2026-04-07T04:54:33.558Z</time></trkpt><trkpt lat="46.6054373" lon="12.4798698"><ele>1203.0</ele><time>2026-04-07T04:54:35.556Z</time></trkpt><trkpt lat="46.6055463" lon="12.4798405"><ele>1202.75</ele><time>2026-04-07T04:54:37.557Z</time></trkpt><trkpt lat="46.6056545" lon="12.4798116"><ele>1202.5</ele><time>2026-04-07T04:54:39.557Z</time></trkpt><trkpt lat="46.6057673" lon="12.4797829"><ele>1202.25</ele><time>2026-04-07T04:54:41.558Z</time></trkpt><trkpt lat="46.6058852" lon="12.4797696"><ele>1202.0</ele><time>2026-04-07T04:54:43.558Z</time></trkpt><trkpt lat="46.6060059" lon="12.4798031"><ele>1202.0</ele><time>2026-04-07T04:54:45.558Z</time></trkpt><trkpt lat="46.6061225" lon="12.479864"><ele>1202.0</ele><time>2026-04-07T04:54:47.558Z</time></trkpt><trkpt lat="46.6062186" lon="12.4799708"><ele>1202.0</ele><time>2026-04-07T04:54:49.557Z</time></trkpt><trkpt lat="46.606292" lon="12.4801064"><ele>1202.0</ele><time>2026-04-07T04:54:51.558Z</time></trkpt><trkpt lat="46.6063606" lon="12.4802373"><ele>1201.5</ele><time>2026-04-07T04:54:53.558Z</time></trkpt><trkpt lat="46.6064338" lon="12.4803648"><ele>1201.0</ele><time>2026-04-07T04:54:55.558Z</time></trkpt><trkpt lat="46.6065061" lon="12.4805048"><ele>1200.5</ele><time>2026-04-07T04:54:57.558Z</time></trkpt><trkpt lat="46.6065895" lon="12.4806224"><ele>1200.0</ele><time>2026-04-07T04:54:59.557Z</time></trkpt><trkpt lat="46.6066925" lon="12.480686"><ele>1200.0</ele><time>2026-04-07T04:55:01.557Z</time></trkpt><trkpt lat="46.6068016" lon="12.4806552"><ele>1200.0</ele><time>2026-04-07T04:55:03.558Z</time></trkpt><trkpt lat="46.6069076" lon="12.4805788"><ele>1200.0</ele><time>2026-04-07T04:55:05.558Z</time></trkpt><trkpt lat="46.6070119" lon="12.4804952"><ele>1200.0</ele><time>2026-04-07T04:55:07.558Z</time></trkpt><trkpt lat="46.6071144" lon="12.4804216"><ele>1199.75</ele><time>2026-04-07T04:55:09.557Z</time></trkpt><trkpt lat="46.6072226" lon="12.480353"><ele>1199.5</ele><time>2026-04-07T04:55:11.556Z</time></trkpt><trkpt lat="46.6073284" lon="12.480288"><ele>1199.25</ele><time>2026-04-07T04:55:13.557Z</time></trkpt><trkpt lat="46.6074324" lon="12.4802185"><ele>1199.0</ele><time>2026-04-07T04:55:15.557Z</time></trkpt><trkpt lat="46.607535" lon="12.4801533"><ele>1199.0</ele><time>2026-04-07T04:55:17.557Z</time></trkpt><trkpt lat="46.6076851" lon="12.4800789"><ele>1199.0</ele><time>2026-04-07T04:55:20.557Z</time></trkpt><trkpt lat="46.6077808" lon="12.4800402"><ele>1199.0</ele><time>2026-04-07T04:55:22.558Z</time></trkpt><trkpt lat="46.6078722" lon="12.480013"><ele>1199.0</ele><time>2026-04-07T04:55:24.557Z</time></trkpt><trkpt lat="46.6079576" lon="12.4800409"><ele>1199.0</ele><time>2026-04-07T04:55:26.558Z</time></trkpt><trkpt lat="46.6080258" lon="12.4801033"><ele>1200.0</ele><time>2026-04-07T04:55:28.557Z</time></trkpt><trkpt lat="46.6080739" lon="12.4801702"><ele>1201.0</ele><time>2026-04-07T04:55:30.557Z</time></trkpt><trkpt lat="46.6081263" lon="12.480231"><ele>1202.0</ele><time>2026-04-07T04:55:33.557Z</time></trkpt><trkpt lat="46.6081938" lon="12.480318"><ele>1203.0</ele><time>2026-04-07T04:55:36.569Z</time></trkpt><trkpt lat="46.6082392" lon="12.4803877"><ele>1204.0</ele><time>2026-04-07T04:55:39.558Z</time></trkpt><trkpt lat="46.6082899" lon="12.4804733"><ele>1205.0</ele><time>2026-04-07T04:55:43.565Z</time></trkpt><trkpt lat="46.6083451" lon="12.4805628"><ele>1206.0</ele><time>2026-04-07T04:55:46.558Z</time></trkpt><trkpt lat="46.6083928" lon="12.4806328"><ele>1207.0</ele><time>2026-04-07T04:55:49.557Z</time></trkpt><trkpt lat="46.6084345" lon="12.4807107"><ele>1208.0</ele><time>2026-04-07T04:55:52.558Z</time></trkpt><trkpt lat="46.6084711" lon="12.480789"><ele>1209.0</ele><time>2026-04-07T04:55:55.558Z</time></trkpt><trkpt lat="46.6085003" lon="12.4808775"><ele>1210.0</ele><time>2026-04-07T04:55:58.557Z</time></trkpt><trkpt lat="46.6085307" lon="12.4809629"><ele>1211.0</ele><time>2026-04-07T04:56:01.558Z</time></trkpt><trkpt lat="46.6085774" lon="12.4810397"><ele>1212.0</ele><time>2026-04-07T04:56:04.557Z</time></trkpt><trkpt lat="46.6086268" lon="12.4811027"><ele>1212.3333333333333</ele><time>2026-04-07T04:56:07.557Z</time></trkpt><trkpt lat="46.6086916" lon="12.4810929"><ele>1212.6666666666667</ele><time>2026-04-07T04:56:10.558Z</time></trkpt><trkpt lat="46.6087706" lon="12.4810641"><ele>1213.0</ele><time>2026-04-07T04:56:13.558Z</time></trkpt><trkpt lat="46.6088375" lon="12.4810319"><ele>1213.3333333333335</ele><time>2026-04-07T04:56:15.558Z</time></trkpt><trkpt lat="46.6089097" lon="12.4809916"><ele>1213.6666666666667</ele><time>2026-04-07T04:56:17.558Z</time></trkpt><trkpt lat="46.6089866" lon="12.4809533"><ele>1214.0</ele><time>2026-04-07T04:56:19.557Z</time></trkpt><trkpt lat="46.6090658" lon="12.4809335"><ele>1214.0</ele><time>2026-04-07T04:56:21.558Z</time></trkpt><trkpt lat="46.6091446" lon="12.4809066"><ele>1214.0</ele><time>2026-04-07T04:56:23.558Z</time></trkpt><trkpt lat="46.609219" lon="12.4808884"><ele>1214.0</ele><time>2026-04-07T04:56:25.558Z</time></trkpt><trkpt lat="46.609292" lon="12.4808637"><ele>1214.0</ele><time>2026-04-07T04:56:27.558Z</time></trkpt><trkpt lat="46.6093678" lon="12.4808379"><ele>1214.0</ele><time>2026-04-07T04:56:29.558Z</time></trkpt><trkpt lat="46.6094451" lon="12.4808174"><ele>1214.0</ele><time>2026-04-07T04:56:31.557Z</time></trkpt><trkpt lat="46.6095227" lon="12.4807942"><ele>1215.0</ele><time>2026-04-07T04:56:33.558Z</time></trkpt><trkpt lat="46.6096035" lon="12.4807762"><ele>1216.0</ele><time>2026-04-07T04:56:35.557Z</time></trkpt><trkpt lat="46.6096821" lon="12.4807572"><ele>1217.0</ele><time>2026-04-07T04:56:37.557Z</time></trkpt><trkpt lat="46.6097594" lon="12.4807354"><ele>1218.0</ele><time>2026-04-07T04:56:39.557Z</time></trkpt><trkpt lat="46.6098363" lon="12.4807095"><ele>1219.0</ele><time>2026-04-07T04:56:41.558Z</time></trkpt><trkpt lat="46.6099126" lon="12.4806834"><ele>1220.0</ele><time>2026-04-07T04:56:43.558Z</time></trkpt><trkpt lat="46.6099891" lon="12.4806587"><ele>1220.0</ele><time>2026-04-07T04:56:45.557Z</time></trkpt><trkpt lat="46.6100667" lon="12.4806348"><ele>1220.0</ele><time>2026-04-07T04:56:47.558Z</time></trkpt><trkpt lat="46.6101471" lon="12.4806102"><ele>1220.0</ele><time>2026-04-07T04:56:49.556Z</time></trkpt><trkpt lat="46.6102281" lon="12.4805872"><ele>1220.0</ele><time>2026-04-07T04:56:51.558Z</time></trkpt><trkpt lat="46.6103116" lon="12.4805665"><ele>1220.0</ele><time>2026-04-07T04:56:53.558Z</time></trkpt><trkpt lat="46.6103968" lon="12.4805512"><ele>1220.0</ele><time>2026-04-07T04:56:55.557Z</time></trkpt><trkpt lat="46.6104803" lon="12.4805186"><ele>1218.5</ele><time>2026-04-07T04:56:57.558Z</time></trkpt><trkpt lat="46.6105649" lon="12.4804938"><ele>1217.0</ele><time>2026-04-07T04:56:59.558Z</time></trkpt><trkpt lat="46.6106514" lon="12.4804749"><ele>1215.5</ele><time>2026-04-07T04:57:01.557Z</time></trkpt><trkpt lat="46.6107409" lon="12.4804259"><ele>1214.0</ele><time>2026-04-07T04:57:03.558Z</time></trkpt><trkpt lat="46.6108275" lon="12.4804045"><ele>1212.5</ele><time>2026-04-07T04:57:05.558Z</time></trkpt><trkpt lat="46.6109153" lon="12.4803662"><ele>1211.0</ele><time>2026-04-07T04:57:07.557Z</time></trkpt><trkpt lat="46.6110011" lon="12.4803211"><ele>1211.0</ele><time>2026-04-07T04:57:09.558Z</time></trkpt><trkpt lat="46.6110878" lon="12.4802691"><ele>1211.0</ele><time>2026-04-07T04:57:11.557Z</time></trkpt><trkpt lat="46.6111745" lon="12.4802267"><ele>1211.0</ele><time>2026-04-07T04:57:13.557Z</time></trkpt><trkpt lat="46.6112611" lon="12.4801956"><ele>1211.0</ele><time>2026-04-07T04:57:15.557Z</time></trkpt><trkpt lat="46.6113459" lon="12.4801564"><ele>1211.0</ele><time>2026-04-07T04:57:17.557Z</time></trkpt><trkpt lat="46.6114332" lon="12.4801217"><ele>1214.2</ele><time>2026-04-07T04:57:19.558Z</time></trkpt><trkpt lat="46.61152" lon="12.4800793"><ele>1217.3999999999999</ele><time>2026-04-07T04:57:21.558Z</time></trkpt><trkpt lat="46.611606" lon="12.4800324"><ele>1220.6</ele><time>2026-04-07T04:57:23.558Z</time></trkpt><trkpt lat="46.6116894" lon="12.479989"><ele>1223.8</ele><time>2026-04-07T04:57:25.557Z</time></trkpt><trkpt lat="46.6117741" lon="12.4799447"><ele>1227.0</ele><time>2026-04-07T04:57:27.558Z</time></trkpt><trkpt lat="46.6118553" lon="12.4798935"><ele>1227.0</ele><time>2026-04-07T04:57:29.558Z</time></trkpt><trkpt lat="46.6119364" lon="12.4798371"><ele>1227.0</ele><time>2026-04-07T04:57:31.558Z</time></trkpt><trkpt lat="46.6120155" lon="12.4797767"><ele>1227.0</ele><time>2026-04-07T04:57:33.557Z</time></trkpt><trkpt lat="46.6120953" lon="12.479706"><ele>1227.0</ele><time>2026-04-07T04:57:35.558Z</time></trkpt><trkpt lat="46.6121738" lon="12.4796281"><ele>1227.0</ele><time>2026-04-07T04:57:37.556Z</time></trkpt><trkpt lat="46.6122511" lon="12.4795452"><ele>1225.2</ele><time>2026-04-07T04:57:39.556Z</time></trkpt><trkpt lat="46.6123285" lon="12.4794614"><ele>1223.4</ele><time>2026-04-07T04:57:41.557Z</time></trkpt><trkpt lat="46.6124049" lon="12.4793785"><ele>1221.6</ele><time>2026-04-07T04:57:43.558Z</time></trkpt><trkpt lat="46.6124848" lon="12.4793067"><ele>1219.8</ele><time>2026-04-07T04:57:45.557Z</time></trkpt><trkpt lat="46.6125646" lon="12.4792439"><ele>1218.0</ele><time>2026-04-07T04:57:47.557Z</time></trkpt><trkpt lat="46.6126499" lon="12.479196"><ele>1218.0</ele><time>2026-04-07T04:57:49.558Z</time></trkpt><trkpt lat="46.6127377" lon="12.4791569"><ele>1218.0</ele><time>2026-04-07T04:57:51.558Z</time></trkpt><trkpt lat="46.6128225" lon="12.4791159"><ele>1218.0</ele><time>2026-04-07T04:57:53.557Z</time></trkpt><trkpt lat="46.6129029" lon="12.4790534"><ele>1218.0</ele><time>2026-04-07T04:57:55.557Z</time></trkpt><trkpt lat="46.6129903" lon="12.4790042"><ele>1218.0</ele><time>2026-04-07T04:57:57.558Z</time></trkpt><trkpt lat="46.6130791" lon="12.4789618"><ele>1217.8</ele><time>2026-04-07T04:57:59.558Z</time></trkpt><trkpt lat="46.6131683" lon="12.4789171"><ele>1217.6</ele><time>2026-04-07T04:58:01.558Z</time></trkpt><trkpt lat="46.6132574" lon="12.4788721"><ele>1217.4</ele><time>2026-04-07T04:58:03.557Z</time></trkpt><trkpt lat="46.6133483" lon="12.4788239"><ele>1217.2</ele><time>2026-04-07T04:58:05.557Z</time></trkpt><trkpt lat="46.6134342" lon="12.4787804"><ele>1217.0</ele><time>2026-04-07T04:58:07.558Z</time></trkpt><trkpt lat="46.6135204" lon="12.4787338"><ele>1217.0</ele><time>2026-04-07T04:58:09.558Z</time></trkpt><trkpt lat="46.6136092" lon="12.4786871"><ele>1217.0</ele><time>2026-04-07T04:58:11.557Z</time></trkpt><trkpt lat="46.6136973" lon="12.4786434"><ele>1217.0</ele><time>2026-04-07T04:58:13.558Z</time></trkpt><trkpt lat="46.6138284" lon="12.4785708"><ele>1217.0</ele><time>2026-04-07T04:58:16.558Z</time></trkpt><trkpt lat="46.6139149" lon="12.4785173"><ele>1217.0</ele><time>2026-04-07T04:58:18.558Z</time></trkpt><trkpt lat="46.6140004" lon="12.4784664"><ele>1219.4</ele><time>2026-04-07T04:58:20.558Z</time></trkpt><trkpt lat="46.6140808" lon="12.4784082"><ele>1221.8000000000002</ele><time>2026-04-07T04:58:22.557Z</time></trkpt><trkpt lat="46.6141576" lon="12.478333"><ele>1224.2</ele><time>2026-04-07T04:58:24.556Z</time></trkpt><trkpt lat="46.6142283" lon="12.478246"><ele>1226.6000000000001</ele><time>2026-04-07T04:58:26.557Z</time></trkpt><trkpt lat="46.6142953" lon="12.4781495"><ele>1229.0</ele><time>2026-04-07T04:58:28.557Z</time></trkpt><trkpt lat="46.6143549" lon="12.478043"><ele>1228.2</ele><time>2026-04-07T04:58:30.558Z</time></trkpt><trkpt lat="46.6144069" lon="12.4779311"><ele>1227.4</ele><time>2026-04-07T04:58:32.557Z</time></trkpt><trkpt lat="46.6144538" lon="12.4778062"><ele>1226.6</ele><time>2026-04-07T04:58:34.558Z</time></trkpt><trkpt lat="46.6145026" lon="12.4776887"><ele>1225.8</ele><time>2026-04-07T04:58:36.558Z</time></trkpt><trkpt lat="46.6145769" lon="12.4775111"><ele>1225.0</ele><time>2026-04-07T04:58:39.558Z</time></trkpt><trkpt lat="46.6146244" lon="12.4773889"><ele>1225.0</ele><time>2026-04-07T04:58:41.558Z</time></trkpt><trkpt lat="46.6146749" lon="12.4772698"><ele>1225.0</ele><time>2026-04-07T04:58:43.558Z</time></trkpt><trkpt lat="46.6147273" lon="12.4771517"><ele>1225.0</ele><time>2026-04-07T04:58:45.558Z</time></trkpt><trkpt lat="46.6147769" lon="12.4770313"><ele>1225.0</ele><time>2026-04-07T04:58:47.558Z</time></trkpt><trkpt lat="46.6148264" lon="12.4769077"><ele>1225.0</ele><time>2026-04-07T04:58:49.558Z</time></trkpt><trkpt lat="46.6148725" lon="12.4767909"><ele>1225.2</ele><time>2026-04-07T04:58:51.558Z</time></trkpt><trkpt lat="46.6149248" lon="12.4766769"><ele>1225.4</ele><time>2026-04-07T04:58:53.558Z</time></trkpt><trkpt lat="46.6149758" lon="12.4765596"><ele>1225.6</ele><time>2026-04-07T04:58:55.558Z</time></trkpt><trkpt lat="46.6150268" lon="12.4764421"><ele>1225.8</ele><time>2026-04-07T04:58:57.558Z</time></trkpt><trkpt lat="46.6150741" lon="12.4763212"><ele>1226.0</ele><time>2026-04-07T04:58:59.558Z</time></trkpt><trkpt lat="46.615125" lon="12.4761982"><ele>1225.8</ele><time>2026-04-07T04:59:01.557Z</time></trkpt><trkpt lat="46.6151766" lon="12.4760803"><ele>1225.6</ele><time>2026-04-07T04:59:03.558Z</time></trkpt><trkpt lat="46.6152262" lon="12.4759626"><ele>1225.4</ele><time>2026-04-07T04:59:05.558Z</time></trkpt><trkpt lat="46.6152781" lon="12.4758452"><ele>1225.2</ele><time>2026-04-07T04:59:07.557Z</time></trkpt><trkpt lat="46.6153424" lon="12.4757404"><ele>1225.0</ele><time>2026-04-07T04:59:09.557Z</time></trkpt><trkpt lat="46.6154208" lon="12.4756557"><ele>1225.0</ele><time>2026-04-07T04:59:11.557Z</time></trkpt><trkpt lat="46.6155112" lon="12.4756109"><ele>1225.0</ele><time>2026-04-07T04:59:13.557Z</time></trkpt><trkpt lat="46.615604" lon="12.4755863"><ele>1225.0</ele><time>2026-04-07T04:59:15.557Z</time></trkpt><trkpt lat="46.6156949" lon="12.4755832"><ele>1225.0</ele><time>2026-04-07T04:59:17.558Z</time></trkpt><trkpt lat="46.6157801" lon="12.4755859"><ele>1225.0</ele><time>2026-04-07T04:59:19.558Z</time></trkpt><trkpt lat="46.6158642" lon="12.4755925"><ele>1225.0</ele><time>2026-04-07T04:59:21.557Z</time></trkpt><trkpt lat="46.6159476" lon="12.4755988"><ele>1225.0</ele><time>2026-04-07T04:59:23.558Z</time></trkpt><trkpt lat="46.6160321" lon="12.4756043"><ele>1225.0</ele><time>2026-04-07T04:59:25.557Z</time></trkpt><trkpt lat="46.6161135" lon="12.4756105"><ele>1225.0</ele><time>2026-04-07T04:59:27.557Z</time></trkpt><trkpt lat="46.616195" lon="12.4756156"><ele>1225.0</ele><time>2026-04-07T04:59:29.557Z</time></trkpt><trkpt lat="46.6162797" lon="12.4756238"><ele>1225.0</ele><time>2026-04-07T04:59:31.557Z</time></trkpt><trkpt lat="46.6163659" lon="12.4756285"><ele>1225.3333333333333</ele><time>2026-04-07T04:59:33.557Z</time></trkpt><trkpt lat="46.6164515" lon="12.4756305"><ele>1225.6666666666665</ele><time>2026-04-07T04:59:35.558Z</time></trkpt><trkpt lat="46.616536" lon="12.4756309"><ele>1226.0</ele><time>2026-04-07T04:59:37.558Z</time></trkpt><trkpt lat="46.6166193" lon="12.4756267"><ele>1226.3333333333333</ele><time>2026-04-07T04:59:39.558Z</time></trkpt><trkpt lat="46.6167021" lon="12.4756259"><ele>1226.6666666666667</ele><time>2026-04-07T04:59:41.557Z</time></trkpt><trkpt lat="46.6167835" lon="12.4756158"><ele>1227.0</ele><time>2026-04-07T04:59:43.557Z</time></trkpt><trkpt lat="46.6168616" lon="12.4755853"><ele>1227.0</ele><time>2026-04-07T04:59:45.558Z</time></trkpt><trkpt lat="46.6169393" lon="12.4755468"><ele>1227.0</ele><time>2026-04-07T04:59:47.558Z</time></trkpt><trkpt lat="46.6170155" lon="12.4755033"><ele>1227.0</ele><time>2026-04-07T04:59:49.557Z</time></trkpt><trkpt lat="46.6170945" lon="12.4754806"><ele>1227.0</ele><time>2026-04-07T04:59:51.557Z</time></trkpt><trkpt lat="46.6171698" lon="12.4754501"><ele>1227.0</ele><time>2026-04-07T04:59:53.558Z</time></trkpt><trkpt lat="46.617238" lon="12.475429"><ele>1227.0</ele><time>2026-04-07T04:59:55.557Z</time></trkpt><trkpt lat="46.6173072" lon="12.4753949"><ele>1227.5</ele><time>2026-04-07T04:59:57.558Z</time></trkpt><trkpt lat="46.6173823" lon="12.4753334"><ele>1228.0</ele><time>2026-04-07T04:59:59.558Z</time></trkpt><trkpt lat="46.6174589" lon="12.4752814"><ele>1228.5</ele><time>2026-04-07T05:00:01.558Z</time></trkpt><trkpt lat="46.6175354" lon="12.475234"><ele>1229.0</ele><time>2026-04-07T05:00:03.558Z</time></trkpt><trkpt lat="46.6176118" lon="12.4751894"><ele>1229.5</ele><time>2026-04-07T05:00:05.557Z</time></trkpt><trkpt lat="46.6176863" lon="12.4751352"><ele>1230.0</ele><time>2026-04-07T05:00:07.558Z</time></trkpt><trkpt lat="46.617758" lon="12.4750675"><ele>1233.5</ele><time>2026-04-07T05:00:09.558Z</time></trkpt><trkpt lat="46.6178312" lon="12.4750113"><ele>1237.0</ele><time>2026-04-07T05:00:11.556Z</time></trkpt><trkpt lat="46.6179049" lon="12.4749631"><ele>1240.5</ele><time>2026-04-07T05:00:13.557Z</time></trkpt><trkpt lat="46.6179813" lon="12.474917"><ele>1244.0</ele><time>2026-04-07T05:00:15.558Z</time></trkpt><trkpt lat="46.6180567" lon="12.474867"><ele>1247.5</ele><time>2026-04-07T05:00:17.556Z</time></trkpt><trkpt lat="46.6181274" lon="12.4748199"><ele>1251.0</ele><time>2026-04-07T05:00:19.557Z</time></trkpt><trkpt lat="46.6181988" lon="12.4747745"><ele>1251.0</ele><time>2026-04-07T05:00:21.558Z</time></trkpt><trkpt lat="46.6182705" lon="12.4747219"><ele>1251.0</ele><time>2026-04-07T05:00:23.558Z</time></trkpt><trkpt lat="46.618343" lon="12.4746697"><ele>1251.0</ele><time>2026-04-07T05:00:25.558Z</time></trkpt><trkpt lat="46.6184156" lon="12.4746167"><ele>1251.0</ele><time>2026-04-07T05:00:27.558Z</time></trkpt><trkpt lat="46.6184908" lon="12.4745673"><ele>1251.0</ele><time>2026-04-07T05:00:29.558Z</time></trkpt><trkpt lat="46.618567" lon="12.474511"><ele>1251.0</ele><time>2026-04-07T05:00:31.558Z</time></trkpt><trkpt lat="46.6186467" lon="12.4744577"><ele>1249.5</ele><time>2026-04-07T05:00:33.556Z</time></trkpt><trkpt lat="46.6187249" lon="12.4744066"><ele>1248.0</ele><time>2026-04-07T05:00:35.558Z</time></trkpt><trkpt lat="46.618803" lon="12.4743557"><ele>1246.5</ele><time>2026-04-07T05:00:37.558Z</time></trkpt><trkpt lat="46.6188817" lon="12.4743091"><ele>1245.0</ele><time>2026-04-07T05:00:39.557Z</time></trkpt><trkpt lat="46.6189609" lon="12.4742725"><ele>1243.5</ele><time>2026-04-07T05:00:41.558Z</time></trkpt><trkpt lat="46.6190413" lon="12.4742426"><ele>1242.0</ele><time>2026-04-07T05:00:43.558Z</time></trkpt><trkpt lat="46.6191232" lon="12.474212"><ele>1242.0</ele><time>2026-04-07T05:00:45.557Z</time></trkpt><trkpt lat="46.6192059" lon="12.4741871"><ele>1242.0</ele><time>2026-04-07T05:00:47.556Z</time></trkpt><trkpt lat="46.6192887" lon="12.4741614"><ele>1242.0</ele><time>2026-04-07T05:00:49.558Z</time></trkpt><trkpt lat="46.6193707" lon="12.47414"><ele>1242.0</ele><time>2026-04-07T05:00:51.557Z</time></trkpt><trkpt lat="46.6194494" lon="12.4741102"><ele>1242.0</ele><time>2026-04-07T05:00:53.557Z</time></trkpt><trkpt lat="46.6195282" lon="12.474086"><ele>1242.0</ele><time>2026-04-07T05:00:55.557Z</time></trkpt><trkpt lat="46.6196433" lon="12.4740479"><ele>1245.8333333333333</ele><time>2026-04-07T05:00:58.557Z</time></trkpt><trkpt lat="46.619719" lon="12.4740261"><ele>1249.6666666666667</ele><time>2026-04-07T05:01:00.557Z</time></trkpt><trkpt lat="46.6197919" lon="12.4739953"><ele>1253.5</ele><time>2026-04-07T05:01:02.557Z</time></trkpt><trkpt lat="46.6198619" lon="12.4739578"><ele>1257.3333333333335</ele><time>2026-04-07T05:01:04.557Z</time></trkpt><trkpt lat="46.6199308" lon="12.4739213"><ele>1261.1666666666667</ele><time>2026-04-07T05:01:06.556Z</time></trkpt><trkpt lat="46.620001" lon="12.4738886"><ele>1265.0</ele><time>2026-04-07T05:01:08.557Z</time></trkpt><trkpt lat="46.6200714" lon="12.4738494"><ele>1265.0</ele><time>2026-04-07T05:01:10.558Z</time></trkpt><trkpt lat="46.6201441" lon="12.4738198"><ele>1265.0</ele><time>2026-04-07T05:01:12.558Z</time></trkpt><trkpt lat="46.6202193" lon="12.4737817"><ele>1265.0</ele><time>2026-04-07T05:01:14.557Z</time></trkpt><trkpt lat="46.6202921" lon="12.4737344"><ele>1265.0</ele><time>2026-04-07T05:01:16.558Z</time></trkpt><trkpt lat="46.6203604" lon="12.4736998"><ele>1265.0</ele><time>2026-04-07T05:01:18.557Z</time></trkpt><trkpt lat="46.6204309" lon="12.4736953"><ele>1265.0</ele><time>2026-04-07T05:01:20.558Z</time></trkpt><trkpt lat="46.6204941" lon="12.4736599"><ele>1265.0</ele><time>2026-04-07T05:01:22.558Z</time></trkpt><trkpt lat="46.6205605" lon="12.4736243"><ele>1264.4285714285713</ele><time>2026-04-07T05:01:24.556Z</time></trkpt><trkpt lat="46.6206226" lon="12.4735952"><ele>1263.857142857143</ele><time>2026-04-07T05:01:26.558Z</time></trkpt><trkpt lat="46.6206834" lon="12.4735532"><ele>1263.2857142857142</ele><time>2026-04-07T05:01:28.558Z</time></trkpt><trkpt lat="46.6207444" lon="12.4735013"><ele>1262.7142857142858</ele><time>2026-04-07T05:01:30.558Z</time></trkpt><trkpt lat="46.6208012" lon="12.473447"><ele>1262.142857142857</ele><time>2026-04-07T05:01:32.558Z</time></trkpt><trkpt lat="46.6208602" lon="12.4733964"><ele>1261.5714285714287</ele><time>2026-04-07T05:01:34.557Z</time></trkpt><trkpt lat="46.6209174" lon="12.4733371"><ele>1261.0</ele><time>2026-04-07T05:01:36.558Z</time></trkpt><trkpt lat="46.6209754" lon="12.4732767"><ele>1261.0</ele><time>2026-04-07T05:01:38.558Z</time></trkpt><trkpt lat="46.6210323" lon="12.4732144"><ele>1261.0</ele><time>2026-04-07T05:01:40.559Z</time></trkpt><trkpt lat="46.621089" lon="12.4731538"><ele>1261.0</ele><time>2026-04-07T05:01:42.559Z</time></trkpt><trkpt lat="46.6211466" lon="12.4730954"><ele>1261.0</ele><time>2026-04-07T05:01:44.559Z</time></trkpt><trkpt lat="46.6212096" lon="12.4730457"><ele>1261.0</ele><time>2026-04-07T05:01:46.558Z</time></trkpt><trkpt lat="46.6212781" lon="12.4730075"><ele>1261.0</ele><time>2026-04-07T05:01:48.559Z</time></trkpt><trkpt lat="46.6213482" lon="12.4729728"><ele>1261.0</ele><time>2026-04-07T05:01:50.557Z</time></trkpt><trkpt lat="46.62142" lon="12.4729483"><ele>1261.0</ele><time>2026-04-07T05:01:52.559Z</time></trkpt><trkpt lat="46.6214927" lon="12.4729196"><ele>1261.0</ele><time>2026-04-07T05:01:54.558Z</time></trkpt><trkpt lat="46.6215631" lon="12.4728866"><ele>1261.0</ele><time>2026-04-07T05:01:56.559Z</time></trkpt><trkpt lat="46.6216271" lon="12.4728651"><ele>1261.0</ele><time>2026-04-07T05:01:58.558Z</time></trkpt><trkpt lat="46.6216912" lon="12.4728395"><ele>1261.0</ele><time>2026-04-07T05:02:00.558Z</time></trkpt><trkpt lat="46.6217586" lon="12.4728172"><ele>1261.0</ele><time>2026-04-07T05:02:02.559Z</time></trkpt><trkpt lat="46.6218195" lon="12.4727824"><ele>1261.0</ele><time>2026-04-07T05:02:04.559Z</time></trkpt><trkpt lat="46.6218751" lon="12.4727246"><ele>1261.0</ele><time>2026-04-07T05:02:06.559Z</time></trkpt><trkpt lat="46.6219255" lon="12.4726586"><ele>1261.0</ele><time>2026-04-07T05:02:08.559Z</time></trkpt><trkpt lat="46.6219687" lon="12.4725798"><ele>1261.0</ele><time>2026-04-07T05:02:10.559Z</time></trkpt><trkpt lat="46.6220104" lon="12.472499"><ele>1261.0</ele><time>2026-04-07T05:02:12.558Z</time></trkpt><trkpt lat="46.6220462" lon="12.4724107"><ele>1261.0</ele><time>2026-04-07T05:02:14.559Z</time></trkpt><trkpt lat="46.6220755" lon="12.4723158"><ele>1261.0</ele><time>2026-04-07T05:02:16.559Z</time></trkpt><trkpt lat="46.6220989" lon="12.4722131"><ele>1261.0</ele><time>2026-04-07T05:02:18.558Z</time></trkpt><trkpt lat="46.6221161" lon="12.4721081"><ele>1262.5714285714287</ele><time>2026-04-07T05:02:20.558Z</time></trkpt><trkpt lat="46.6221247" lon="12.4720024"><ele>1264.142857142857</ele><time>2026-04-07T05:02:22.559Z</time></trkpt><trkpt lat="46.6221388" lon="12.4718988"><ele>1265.7142857142858</ele><time>2026-04-07T05:02:24.558Z</time></trkpt><trkpt lat="46.6221512" lon="12.4717902"><ele>1267.2857142857142</ele><time>2026-04-07T05:02:26.558Z</time></trkpt><trkpt lat="46.6221667" lon="12.471684"><ele>1268.857142857143</ele><time>2026-04-07T05:02:28.559Z</time></trkpt><trkpt lat="46.6221915" lon="12.4715838"><ele>1270.4285714285713</ele><time>2026-04-07T05:02:30.559Z</time></trkpt><trkpt lat="46.6222239" lon="12.4714906"><ele>1272.0</ele><time>2026-04-07T05:02:32.559Z</time></trkpt><trkpt lat="46.6222572" lon="12.4714021"><ele>1272.0</ele><time>2026-04-07T05:02:34.557Z</time></trkpt><trkpt lat="46.6222945" lon="12.4713156"><ele>1272.0</ele><time>2026-04-07T05:02:36.558Z</time></trkpt><trkpt lat="46.62233" lon="12.4712284"><ele>1272.0</ele><time>2026-04-07T05:02:38.559Z</time></trkpt><trkpt lat="46.6223696" lon="12.4711405"><ele>1272.0</ele><time>2026-04-07T05:02:40.559Z</time></trkpt><trkpt lat="46.622408" lon="12.4710493"><ele>1272.0</ele><time>2026-04-07T05:02:42.558Z</time></trkpt><trkpt lat="46.6224502" lon="12.4709619"><ele>1272.0</ele><time>2026-04-07T05:02:44.558Z</time></trkpt><trkpt lat="46.6224972" lon="12.4708803"><ele>1272.0</ele><time>2026-04-07T05:02:46.559Z</time></trkpt><trkpt lat="46.6225512" lon="12.4708078"><ele>1270.857142857143</ele><time>2026-04-07T05:02:48.558Z</time></trkpt><trkpt lat="46.6226126" lon="12.470748"><ele>1269.7142857142858</ele><time>2026-04-07T05:02:50.558Z</time></trkpt><trkpt lat="46.6226781" lon="12.4707049"><ele>1268.5714285714287</ele><time>2026-04-07T05:02:52.559Z</time></trkpt><trkpt lat="46.6227463" lon="12.4706862"><ele>1267.4285714285716</ele><time>2026-04-07T05:02:54.557Z</time></trkpt><trkpt lat="46.6228145" lon="12.4706699"><ele>1266.2857142857142</ele><time>2026-04-07T05:02:56.558Z</time></trkpt><trkpt lat="46.6228849" lon="12.4706665"><ele>1265.1428571428573</ele><time>2026-04-07T05:02:58.559Z</time></trkpt><trkpt lat="46.6229576" lon="12.4706742"><ele>1264.0</ele><time>2026-04-07T05:03:00.558Z</time></trkpt><trkpt lat="46.623032" lon="12.4706793"><ele>1264.0</ele><time>2026-04-07T05:03:02.558Z</time></trkpt><trkpt lat="46.6231052" lon="12.470689"><ele>1264.0</ele><time>2026-04-07T05:03:04.558Z</time></trkpt><trkpt lat="46.6231775" lon="12.4706934"><ele>1264.0</ele><time>2026-04-07T05:03:06.559Z</time></trkpt><trkpt lat="46.62325" lon="12.4706908"><ele>1264.0</ele><time>2026-04-07T05:03:08.559Z</time></trkpt><trkpt lat="46.6233217" lon="12.4706844"><ele>1264.0</ele><time>2026-04-07T05:03:10.559Z</time></trkpt><trkpt lat="46.6234306" lon="12.4706733"><ele>1264.0</ele><time>2026-04-07T05:03:13.558Z</time></trkpt><trkpt lat="46.6235051" lon="12.4706475"><ele>1264.0000000000002</ele><time>2026-04-07T05:03:15.558Z</time></trkpt><trkpt lat="46.6235745" lon="12.4706103"><ele>1264.0</ele><time>2026-04-07T05:03:17.559Z</time></trkpt><trkpt lat="46.6236396" lon="12.4705645"><ele>1264.0</ele><time>2026-04-07T05:03:19.559Z</time></trkpt><trkpt lat="46.6237077" lon="12.4705225"><ele>1264.0</ele><time>2026-04-07T05:03:21.559Z</time></trkpt><trkpt lat="46.6237722" lon="12.4704775"><ele>1264.0</ele><time>2026-04-07T05:03:23.558Z</time></trkpt><trkpt lat="46.6238361" lon="12.4704298"><ele>1264.0000000000002</ele><time>2026-04-07T05:03:25.559Z</time></trkpt><trkpt lat="46.623901" lon="12.4703848"><ele>1264.0</ele><time>2026-04-07T05:03:27.559Z</time></trkpt><trkpt lat="46.6239646" lon="12.4703393"><ele>1263.5714285714287</ele><time>2026-04-07T05:03:29.559Z</time></trkpt><trkpt lat="46.6240298" lon="12.4702936"><ele>1263.142857142857</ele><time>2026-04-07T05:03:31.557Z</time></trkpt><trkpt lat="46.6240944" lon="12.4702502"><ele>1262.7142857142858</ele><time>2026-04-07T05:03:33.558Z</time></trkpt><trkpt lat="46.6241554" lon="12.470193"><ele>1262.2857142857142</ele><time>2026-04-07T05:03:35.558Z</time></trkpt><trkpt lat="46.6242136" lon="12.4701278"><ele>1261.857142857143</ele><time>2026-04-07T05:03:37.559Z</time></trkpt><trkpt lat="46.6242725" lon="12.4700613"><ele>1261.4285714285716</ele><time>2026-04-07T05:03:39.558Z</time></trkpt><trkpt lat="46.6243293" lon="12.4699908"><ele>1261.0</ele><time>2026-04-07T05:03:41.559Z</time></trkpt><trkpt lat="46.6243854" lon="12.469919"><ele>1261.0</ele><time>2026-04-07T05:03:43.558Z</time></trkpt><trkpt lat="46.6244418" lon="12.4698484"><ele>1261.0</ele><time>2026-04-07T05:03:45.558Z</time></trkpt><trkpt lat="46.6244959" lon="12.4697767"><ele>1261.0</ele><time>2026-04-07T05:03:47.559Z</time></trkpt><trkpt lat="46.624554" lon="12.4697109"><ele>1261.0</ele><time>2026-04-07T05:03:49.558Z</time></trkpt><trkpt lat="46.6246099" lon="12.4696429"><ele>1261.0</ele><time>2026-04-07T05:03:51.558Z</time></trkpt><trkpt lat="46.6246687" lon="12.4695818"><ele>1261.0</ele><time>2026-04-07T05:03:53.559Z</time></trkpt><trkpt lat="46.6247253" lon="12.4695145"><ele>1261.0</ele><time>2026-04-07T05:03:55.558Z</time></trkpt><trkpt lat="46.6247811" lon="12.4694441"><ele>1261.4285714285716</ele><time>2026-04-07T05:03:57.559Z</time></trkpt><trkpt lat="46.6248404" lon="12.4693748"><ele>1261.857142857143</ele><time>2026-04-07T05:03:59.558Z</time></trkpt><trkpt lat="46.6248999" lon="12.4693098"><ele>1262.2857142857142</ele><time>2026-04-07T05:04:01.557Z</time></trkpt><trkpt lat="46.6249536" lon="12.4692358"><ele>1262.7142857142858</ele><time>2026-04-07T05:04:03.558Z</time></trkpt><trkpt lat="46.6250035" lon="12.4691591"><ele>1263.142857142857</ele><time>2026-04-07T05:04:05.558Z</time></trkpt><trkpt lat="46.6250583" lon="12.4690864"><ele>1263.5714285714287</ele><time>2026-04-07T05:04:07.558Z</time></trkpt><trkpt lat="46.6251196" lon="12.4690217"><ele>1264.0</ele><time>2026-04-07T05:04:09.559Z</time></trkpt><trkpt lat="46.6251862" lon="12.4689638"><ele>1264.0</ele><time>2026-04-07T05:04:11.558Z</time></trkpt><trkpt lat="46.6252571" lon="12.4689113"><ele>1264.0</ele><time>2026-04-07T05:04:13.559Z</time></trkpt><trkpt lat="46.625324" lon="12.4688588"><ele>1264.0</ele><time>2026-04-07T05:04:15.559Z</time></trkpt><trkpt lat="46.6253898" lon="12.4688066"><ele>1264.0</ele><time>2026-04-07T05:04:17.559Z</time></trkpt><trkpt lat="46.6254583" lon="12.468758"><ele>1264.0</ele><time>2026-04-07T05:04:19.559Z</time></trkpt><trkpt lat="46.62553" lon="12.4687156"><ele>1264.0</ele><time>2026-04-07T05:04:21.559Z</time></trkpt><trkpt lat="46.6256045" lon="12.4686798"><ele>1264.5</ele><time>2026-04-07T05:04:23.559Z</time></trkpt><trkpt lat="46.625678" lon="12.468647"><ele>1265.0</ele><time>2026-04-07T05:04:25.558Z</time></trkpt><trkpt lat="46.6257466" lon="12.4686058"><ele>1265.5</ele><time>2026-04-07T05:04:27.558Z</time></trkpt><trkpt lat="46.6258176" lon="12.468564"><ele>1266.0</ele><time>2026-04-07T05:04:29.558Z</time></trkpt><trkpt lat="46.6258935" lon="12.4685248"><ele>1266.5</ele><time>2026-04-07T05:04:31.559Z</time></trkpt><trkpt lat="46.625972" lon="12.4684882"><ele>1267.0</ele><time>2026-04-07T05:04:33.559Z</time></trkpt><trkpt lat="46.6260482" lon="12.4684508"><ele>1267.0</ele><time>2026-04-07T05:04:35.559Z</time></trkpt><trkpt lat="46.6261185" lon="12.4684098"><ele>1267.0</ele><time>2026-04-07T05:04:37.558Z</time></trkpt><trkpt lat="46.6262215" lon="12.4683358"><ele>1267.0</ele><time>2026-04-07T05:04:40.558Z</time></trkpt><trkpt lat="46.6262889" lon="12.4682807"><ele>1267.0</ele><time>2026-04-07T05:04:42.559Z</time></trkpt><trkpt lat="46.6263598" lon="12.4682303"><ele>1267.0</ele><time>2026-04-07T05:04:44.559Z</time></trkpt><trkpt lat="46.6264312" lon="12.4681812"><ele>1267.0</ele><time>2026-04-07T05:04:46.558Z</time></trkpt><trkpt lat="46.6265036" lon="12.4681381"><ele>1270.0</ele><time>2026-04-07T05:04:48.558Z</time></trkpt><trkpt lat="46.6265787" lon="12.4681077"><ele>1273.0</ele><time>2026-04-07T05:04:50.559Z</time></trkpt><trkpt lat="46.6266508" lon="12.4680701"><ele>1276.0</ele><time>2026-04-07T05:04:52.558Z</time></trkpt><trkpt lat="46.6267264" lon="12.468041"><ele>1279.0</ele><time>2026-04-07T05:04:54.558Z</time></trkpt><trkpt lat="46.6268028" lon="12.4680181"><ele>1282.0</ele><time>2026-04-07T05:04:56.559Z</time></trkpt><trkpt lat="46.6268786" lon="12.4680002"><ele>1285.0</ele><time>2026-04-07T05:04:58.559Z</time></trkpt><trkpt lat="46.6269483" lon="12.4679809"><ele>1284.0000000000002</ele><time>2026-04-07T05:05:00.559Z</time></trkpt><trkpt lat="46.627013" lon="12.4679639"><ele>1283.0</ele><time>2026-04-07T05:05:02.558Z</time></trkpt><trkpt lat="46.627078" lon="12.4679501"><ele>1282.0</ele><time>2026-04-07T05:05:04.559Z</time></trkpt><trkpt lat="46.6271411" lon="12.4679361"><ele>1281.0</ele><time>2026-04-07T05:05:06.558Z</time></trkpt><trkpt lat="46.6272047" lon="12.4679336"><ele>1280.0</ele><time>2026-04-07T05:05:08.558Z</time></trkpt><trkpt lat="46.6272965" lon="12.4679303"><ele>1279.0000000000002</ele><time>2026-04-07T05:05:11.559Z</time></trkpt><trkpt lat="46.6273884" lon="12.4679508"><ele>1278.0</ele><time>2026-04-07T05:05:14.558Z</time></trkpt><trkpt lat="46.6274729" lon="12.4680012"><ele>1280.5</ele><time>2026-04-07T05:05:17.559Z</time></trkpt><trkpt lat="46.6275529" lon="12.4680655"><ele>1283.0</ele><time>2026-04-07T05:05:20.558Z</time></trkpt><trkpt lat="46.6276271" lon="12.46814"><ele>1285.5</ele><time>2026-04-07T05:05:23.557Z</time></trkpt><trkpt lat="46.6277075" lon="12.4681907"><ele>1288.0</ele><time>2026-04-07T05:05:26.559Z</time></trkpt><trkpt lat="46.6277927" lon="12.4682207"><ele>1290.5</ele><time>2026-04-07T05:05:29.559Z</time></trkpt><trkpt lat="46.6278786" lon="12.4682018"><ele>1293.0</ele><time>2026-04-07T05:05:32.558Z</time></trkpt><trkpt lat="46.6279615" lon="12.4681602"><ele>1293.0</ele><time>2026-04-07T05:05:35.558Z</time></trkpt><trkpt lat="46.6280423" lon="12.4681023"><ele>1293.0</ele><time>2026-04-07T05:05:38.559Z</time></trkpt><trkpt lat="46.6281214" lon="12.4680414"><ele>1293.0</ele><time>2026-04-07T05:05:41.559Z</time></trkpt><trkpt lat="46.6281938" lon="12.4679686"><ele>1293.0</ele><time>2026-04-07T05:05:44.559Z</time></trkpt><trkpt lat="46.6282614" lon="12.4678873"><ele>1293.0</ele><time>2026-04-07T05:05:47.559Z</time></trkpt><trkpt lat="46.6283275" lon="12.4677973"><ele>1293.0</ele><time>2026-04-07T05:05:50.558Z</time></trkpt><trkpt lat="46.6283987" lon="12.4677108"><ele>1293.0</ele><time>2026-04-07T05:05:53.559Z</time></trkpt><trkpt lat="46.6284464" lon="12.4676503"><ele>1293.0</ele><time>2026-04-07T05:05:55.559Z</time></trkpt><trkpt lat="46.6285203" lon="12.4675681"><ele>1293.0</ele><time>2026-04-07T05:05:58.559Z</time></trkpt><trkpt lat="46.6285992" lon="12.4675051"><ele>1293.0</ele><time>2026-04-07T05:06:01.559Z</time></trkpt><trkpt lat="46.6286816" lon="12.467461"><ele>1293.0</ele><time>2026-04-07T05:06:04.558Z</time></trkpt><trkpt lat="46.6287673" lon="12.4674303"><ele>1293.0</ele><time>2026-04-07T05:06:07.558Z</time></trkpt><trkpt lat="46.6288496" lon="12.4673954"><ele>1295.1666666666667</ele><time>2026-04-07T05:06:10.559Z</time></trkpt><trkpt lat="46.6289191" lon="12.467327"><ele>1297.3333333333333</ele><time>2026-04-07T05:06:13.558Z</time></trkpt><trkpt lat="46.6289803" lon="12.4672374"><ele>1299.5</ele><time>2026-04-07T05:06:16.559Z</time></trkpt><trkpt lat="46.6290307" lon="12.4671299"><ele>1301.6666666666665</ele><time>2026-04-07T05:06:19.558Z</time></trkpt><trkpt lat="46.6290656" lon="12.4670077"><ele>1303.8333333333333</ele><time>2026-04-07T05:06:22.559Z</time></trkpt><trkpt lat="46.6290925" lon="12.466888"><ele>1306.0</ele><time>2026-04-07T05:06:25.558Z</time></trkpt><trkpt lat="46.629115" lon="12.4667623"><ele>1306.0</ele><time>2026-04-07T05:06:28.559Z</time></trkpt><trkpt lat="46.6291388" lon="12.4666368"><ele>1306.0</ele><time>2026-04-07T05:06:31.559Z</time></trkpt><trkpt lat="46.6291638" lon="12.4665145"><ele>1306.0</ele><time>2026-04-07T05:06:34.558Z</time></trkpt><trkpt lat="46.6291911" lon="12.4663923"><ele>1306.0</ele><time>2026-04-07T05:06:37.557Z</time></trkpt><trkpt lat="46.6292134" lon="12.4662667"><ele>1306.0</ele><time>2026-04-07T05:06:40.558Z</time></trkpt><trkpt lat="46.6292361" lon="12.4661403"><ele>1306.0</ele><time>2026-04-07T05:06:43.559Z</time></trkpt><trkpt lat="46.6292603" lon="12.4660211"><ele>1306.0</ele><time>2026-04-07T05:06:46.559Z</time></trkpt><trkpt lat="46.6292794" lon="12.4659013"><ele>1306.0</ele><time>2026-04-07T05:06:49.558Z</time></trkpt><trkpt lat="46.6292931" lon="12.4657745"><ele>1306.0</ele><time>2026-04-07T05:06:52.559Z</time></trkpt><trkpt lat="46.6292994" lon="12.465641"><ele>1306.0</ele><time>2026-04-07T05:06:55.557Z</time></trkpt><trkpt lat="46.6293057" lon="12.4655077"><ele>1306.0</ele><time>2026-04-07T05:06:58.558Z</time></trkpt><trkpt lat="46.6293145" lon="12.4653742"><ele>1306.0</ele><time>2026-04-07T05:07:01.558Z</time></trkpt><trkpt lat="46.6293373" lon="12.465247"><ele>1307.1666666666665</ele><time>2026-04-07T05:07:04.558Z</time></trkpt><trkpt lat="46.629378" lon="12.4651332"><ele>1308.3333333333333</ele><time>2026-04-07T05:07:07.559Z</time></trkpt><trkpt lat="46.6294319" lon="12.4650417"><ele>1309.5</ele><time>2026-04-07T05:07:10.558Z</time></trkpt><trkpt lat="46.6294907" lon="12.4649602"><ele>1310.6666666666667</ele><time>2026-04-07T05:07:13.558Z</time></trkpt><trkpt lat="46.6295466" lon="12.4648793"><ele>1311.8333333333335</ele><time>2026-04-07T05:07:16.558Z</time></trkpt><trkpt lat="46.6296037" lon="12.4648004"><ele>1313.0</ele><time>2026-04-07T05:07:19.559Z</time></trkpt><trkpt lat="46.6296582" lon="12.4647238"><ele>1313.0</ele><time>2026-04-07T05:07:22.559Z</time></trkpt><trkpt lat="46.6297144" lon="12.4646459"><ele>1313.0</ele><time>2026-04-07T05:07:25.559Z</time></trkpt><trkpt lat="46.6297702" lon="12.4645643"><ele>1313.0</ele><time>2026-04-07T05:07:28.559Z</time></trkpt><trkpt lat="46.6298405" lon="12.4645055"><ele>1313.0</ele><time>2026-04-07T05:07:31.559Z</time></trkpt><trkpt lat="46.6299202" lon="12.4644786"><ele>1313.0</ele><time>2026-04-07T05:07:34.559Z</time></trkpt><trkpt lat="46.6299998" lon="12.4644808"><ele>1313.0</ele><time>2026-04-07T05:07:37.559Z</time></trkpt><trkpt lat="46.6300686" lon="12.4645082"><ele>1313.0000000000002</ele><time>2026-04-07T05:07:40.558Z</time></trkpt><trkpt lat="46.6301281" lon="12.4645752"><ele>1313.0</ele><time>2026-04-07T05:07:43.558Z</time></trkpt><trkpt lat="46.6301819" lon="12.4646471"><ele>1313.0</ele><time>2026-04-07T05:07:46.559Z</time></trkpt><trkpt lat="46.6302317" lon="12.4647272"><ele>1313.0</ele><time>2026-04-07T05:07:49.557Z</time></trkpt><trkpt lat="46.6302864" lon="12.4647974"><ele>1313.0</ele><time>2026-04-07T05:07:52.559Z</time></trkpt><trkpt lat="46.6303323" lon="12.464865"><ele>1313.0000000000002</ele><time>2026-04-07T05:07:55.557Z</time></trkpt><trkpt lat="46.6303875" lon="12.4649227"><ele>1313.0</ele><time>2026-04-07T05:07:58.558Z</time></trkpt><trkpt lat="46.6304556" lon="12.4649498"><ele>1314.5</ele><time>2026-04-07T05:08:01.559Z</time></trkpt><trkpt lat="46.630523" lon="12.464953"><ele>1316.0</ele><time>2026-04-07T05:08:04.558Z</time></trkpt><trkpt lat="46.6305944" lon="12.4649208"><ele>1317.5</ele><time>2026-04-07T05:08:07.558Z</time></trkpt><trkpt lat="46.6306715" lon="12.4648662"><ele>1319.0</ele><time>2026-04-07T05:08:10.559Z</time></trkpt><trkpt lat="46.6307437" lon="12.4648015"><ele>1320.5</ele><time>2026-04-07T05:08:13.559Z</time></trkpt><trkpt lat="46.6307935" lon="12.4647268"><ele>1322.0</ele><time>2026-04-07T05:08:16.559Z</time></trkpt><trkpt lat="46.6308477" lon="12.464653"><ele>1321.857142857143</ele><time>2026-04-07T05:08:19.559Z</time></trkpt><trkpt lat="46.6308964" lon="12.4645744"><ele>1321.7142857142858</ele><time>2026-04-07T05:08:22.558Z</time></trkpt><trkpt lat="46.6309438" lon="12.4644936"><ele>1321.5714285714284</ele><time>2026-04-07T05:08:25.558Z</time></trkpt><trkpt lat="46.6309991" lon="12.4644198"><ele>1321.4285714285716</ele><time>2026-04-07T05:08:28.559Z</time></trkpt><trkpt lat="46.6310406" lon="12.4643296"><ele>1321.2857142857144</ele><time>2026-04-07T05:08:31.559Z</time></trkpt><trkpt lat="46.6310853" lon="12.4642463"><ele>1321.142857142857</ele><time>2026-04-07T05:08:34.559Z</time></trkpt><trkpt lat="46.6311218" lon="12.4641534"><ele>1321.0</ele><time>2026-04-07T05:08:37.559Z</time></trkpt><trkpt lat="46.6311575" lon="12.4640591"><ele>1321.3333333333333</ele><time>2026-04-07T05:08:40.558Z</time></trkpt><trkpt lat="46.6311983" lon="12.4639666"><ele>1321.6666666666665</ele><time>2026-04-07T05:08:43.559Z</time></trkpt><trkpt lat="46.6312338" lon="12.4638712"><ele>1322.0</ele><time>2026-04-07T05:08:46.559Z</time></trkpt><trkpt lat="46.6312736" lon="12.4637791"><ele>1322.3333333333333</ele><time>2026-04-07T05:08:49.56Z</time></trkpt><trkpt lat="46.6313146" lon="12.4636825"><ele>1322.6666666666667</ele><time>2026-04-07T05:08:52.559Z</time></trkpt><trkpt lat="46.6313605" lon="12.463586"><ele>1323.0</ele><time>2026-04-07T05:08:55.56Z</time></trkpt><trkpt lat="46.6314145" lon="12.4635069"><ele>1323.0</ele><time>2026-04-07T05:08:58.559Z</time></trkpt><trkpt lat="46.6314843" lon="12.4634643"><ele>1323.0</ele><time>2026-04-07T05:09:01.56Z</time></trkpt><trkpt lat="46.6315676" lon="12.463451"><ele>1323.0</ele><time>2026-04-07T05:09:04.56Z</time></trkpt><trkpt lat="46.6316474" lon="12.4634774"><ele>1323.0</ele><time>2026-04-07T05:09:07.558Z</time></trkpt><trkpt lat="46.6317093" lon="12.46355"><ele>1323.0</ele><time>2026-04-07T05:09:10.559Z</time></trkpt><trkpt lat="46.631766" lon="12.4636312"><ele>1323.0</ele><time>2026-04-07T05:09:13.559Z</time></trkpt><trkpt lat="46.6318384" lon="12.4636758"><ele>1323.0</ele><time>2026-04-07T05:09:16.56Z</time></trkpt><trkpt lat="46.6319184" lon="12.4636879"><ele>1323.0</ele><time>2026-04-07T05:09:19.56Z</time></trkpt><trkpt lat="46.631998" lon="12.463673"><ele>1323.0</ele><time>2026-04-07T05:09:22.56Z</time></trkpt><trkpt lat="46.6320732" lon="12.4636263"><ele>1323.0</ele><time>2026-04-07T05:09:25.558Z</time></trkpt><trkpt lat="46.6321379" lon="12.4635686"><ele>1323.0</ele><time>2026-04-07T05:09:28.558Z</time></trkpt><trkpt lat="46.6321995" lon="12.4635095"><ele>1323.0</ele><time>2026-04-07T05:09:31.559Z</time></trkpt><trkpt lat="46.6322528" lon="12.4634373"><ele>1325.5</ele><time>2026-04-07T05:09:34.558Z</time></trkpt><trkpt lat="46.6323121" lon="12.4633775"><ele>1328.0</ele><time>2026-04-07T05:09:37.559Z</time></trkpt><trkpt lat="46.6323752" lon="12.4633203"><ele>1330.5</ele><time>2026-04-07T05:09:40.559Z</time></trkpt><trkpt lat="46.6324335" lon="12.4632576"><ele>1333.0</ele><time>2026-04-07T05:09:43.56Z</time></trkpt><trkpt lat="46.6324925" lon="12.4631896"><ele>1335.5</ele><time>2026-04-07T05:09:46.559Z</time></trkpt><trkpt lat="46.6325741" lon="12.4631973"><ele>1338.0</ele><time>2026-04-07T05:09:49.559Z</time></trkpt><trkpt lat="46.6326079" lon="12.4633205"><ele>1338.0</ele><time>2026-04-07T05:09:52.56Z</time></trkpt><trkpt lat="46.6325699" lon="12.4634375"><ele>1338.0</ele><time>2026-04-07T05:09:55.56Z</time></trkpt><trkpt lat="46.6325017" lon="12.4635201"><ele>1338.0</ele><time>2026-04-07T05:09:58.559Z</time></trkpt><trkpt lat="46.632439" lon="12.4636103"><ele>1338.0</ele><time>2026-04-07T05:10:01.56Z</time></trkpt><trkpt lat="46.632389" lon="12.4636797"><ele>1338.0</ele><time>2026-04-07T05:10:04.56Z</time></trkpt><trkpt lat="46.6323539" lon="12.4637621"><ele>1338.0</ele><time>2026-04-07T05:10:08.56Z</time></trkpt><trkpt lat="46.6322993" lon="12.463863"><ele>1339.5</ele><time>2026-04-07T05:10:11.56Z</time></trkpt><trkpt lat="46.6322492" lon="12.463957"><ele>1341.0</ele><time>2026-04-07T05:10:14.56Z</time></trkpt><trkpt lat="46.6322058" lon="12.4640657"><ele>1342.5</ele><time>2026-04-07T05:10:18.56Z</time></trkpt><trkpt lat="46.6321623" lon="12.4641691"><ele>1344.0</ele><time>2026-04-07T05:10:21.559Z</time></trkpt><trkpt lat="46.63217" lon="12.4642805"><ele>1345.5</ele><time>2026-04-07T05:10:24.56Z</time></trkpt><trkpt lat="46.6321891" lon="12.4643827"><ele>1347.0</ele><time>2026-04-07T05:10:27.559Z</time></trkpt><trkpt lat="46.6322237" lon="12.464474"><ele>1347.0</ele><time>2026-04-07T05:10:30.56Z</time></trkpt><trkpt lat="46.6322747" lon="12.4645505"><ele>1347.0</ele><time>2026-04-07T05:10:33.559Z</time></trkpt><trkpt lat="46.6323578" lon="12.4645803"><ele>1347.0</ele><time>2026-04-07T05:10:36.559Z</time></trkpt><trkpt lat="46.6324425" lon="12.4645754"><ele>1347.0</ele><time>2026-04-07T05:10:39.56Z</time></trkpt><trkpt lat="46.6325176" lon="12.4645427"><ele>1347.0</ele><time>2026-04-07T05:10:42.56Z</time></trkpt><trkpt lat="46.6325752" lon="12.4644824"><ele>1347.0</ele><time>2026-04-07T05:10:45.559Z</time></trkpt><trkpt lat="46.6326411" lon="12.4644399"><ele>1347.0</ele><time>2026-04-07T05:10:48.558Z</time></trkpt><trkpt lat="46.6327087" lon="12.4643804"><ele>1347.0</ele><time>2026-04-07T05:10:51.559Z</time></trkpt><trkpt lat="46.6327789" lon="12.4643211"><ele>1347.0</ele><time>2026-04-07T05:10:54.56Z</time></trkpt><trkpt lat="46.6328484" lon="12.4642666"><ele>1347.0</ele><time>2026-04-07T05:10:57.56Z</time></trkpt><trkpt lat="46.6329183" lon="12.4642069"><ele>1347.0</ele><time>2026-04-07T05:11:00.559Z</time></trkpt><trkpt lat="46.6329906" lon="12.4641423"><ele>1347.0</ele><time>2026-04-07T05:11:03.56Z</time></trkpt><trkpt lat="46.6330537" lon="12.4640676"><ele>1348.3333333333333</ele><time>2026-04-07T05:11:06.558Z</time></trkpt><trkpt lat="46.6331178" lon="12.4639897"><ele>1349.6666666666667</ele><time>2026-04-07T05:11:09.56Z</time></trkpt><trkpt lat="46.6331818" lon="12.4639095"><ele>1351.0</ele><time>2026-04-07T05:11:12.56Z</time></trkpt><trkpt lat="46.6332444" lon="12.4638282"><ele>1352.3333333333335</ele><time>2026-04-07T05:11:15.558Z</time></trkpt><trkpt lat="46.6333092" lon="12.4637527"><ele>1353.6666666666667</ele><time>2026-04-07T05:11:18.559Z</time></trkpt><trkpt lat="46.6333713" lon="12.4636754"><ele>1355.0</ele><time>2026-04-07T05:11:21.559Z</time></trkpt><trkpt lat="46.6334376" lon="12.4636069"><ele>1355.0</ele><time>2026-04-07T05:11:24.56Z</time></trkpt><trkpt lat="46.6335102" lon="12.4635451"><ele>1355.0</ele><time>2026-04-07T05:11:27.56Z</time></trkpt><trkpt lat="46.6335846" lon="12.4634998"><ele>1355.0</ele><time>2026-04-07T05:11:30.559Z</time></trkpt><trkpt lat="46.6336633" lon="12.463461"><ele>1355.0</ele><time>2026-04-07T05:11:33.56Z</time></trkpt><trkpt lat="46.6337363" lon="12.4634081"><ele>1355.0</ele><time>2026-04-07T05:11:36.56Z</time></trkpt><trkpt lat="46.633811" lon="12.4633592"><ele>1355.0</ele><time>2026-04-07T05:11:39.56Z</time></trkpt><trkpt lat="46.6338862" lon="12.463307"><ele>1358.3333333333335</ele><time>2026-04-07T05:11:42.56Z</time></trkpt><trkpt lat="46.6339695" lon="12.4632577"><ele>1361.6666666666667</ele><time>2026-04-07T05:11:45.56Z</time></trkpt><trkpt lat="46.634048" lon="12.4632145"><ele>1365.0</ele><time>2026-04-07T05:11:48.559Z</time></trkpt><trkpt lat="46.6341212" lon="12.4631667"><ele>1368.3333333333333</ele><time>2026-04-07T05:11:51.56Z</time></trkpt><trkpt lat="46.6341933" lon="12.4631057"><ele>1371.6666666666665</ele><time>2026-04-07T05:11:54.558Z</time></trkpt><trkpt lat="46.6342691" lon="12.4630468"><ele>1375.0</ele><time>2026-04-07T05:11:57.559Z</time></trkpt><trkpt lat="46.6343409" lon="12.4629779"><ele>1375.8333333333333</ele><time>2026-04-07T05:12:00.56Z</time></trkpt><trkpt lat="46.6344081" lon="12.4628972"><ele>1376.6666666666665</ele><time>2026-04-07T05:12:03.559Z</time></trkpt><trkpt lat="46.6344696" lon="12.4628197"><ele>1377.5</ele><time>2026-04-07T05:12:06.559Z</time></trkpt><trkpt lat="46.63453" lon="12.4627386"><ele>1378.3333333333333</ele><time>2026-04-07T05:12:09.559Z</time></trkpt><trkpt lat="46.63459" lon="12.4626596"><ele>1379.1666666666667</ele><time>2026-04-07T05:12:12.559Z</time></trkpt><trkpt lat="46.6346484" lon="12.4625739"><ele>1380.0</ele><time>2026-04-07T05:12:15.559Z</time></trkpt><trkpt lat="46.6347114" lon="12.4624908"><ele>1380.0</ele><time>2026-04-07T05:12:18.559Z</time></trkpt><trkpt lat="46.6347746" lon="12.4624107"><ele>1380.0</ele><time>2026-04-07T05:12:21.56Z</time></trkpt><trkpt lat="46.6348404" lon="12.46233"><ele>1380.0</ele><time>2026-04-07T05:12:24.558Z</time></trkpt><trkpt lat="46.6349071" lon="12.4622562"><ele>1380.0</ele><time>2026-04-07T05:12:27.56Z</time></trkpt><trkpt lat="46.6349713" lon="12.4621856"><ele>1380.0</ele><time>2026-04-07T05:12:30.559Z</time></trkpt><trkpt lat="46.635038" lon="12.4621236"><ele>1380.0</ele><time>2026-04-07T05:12:33.559Z</time></trkpt><trkpt lat="46.6351046" lon="12.4620661"><ele>1381.3333333333333</ele><time>2026-04-07T05:12:36.559Z</time></trkpt><trkpt lat="46.6351708" lon="12.4620064"><ele>1382.6666666666667</ele><time>2026-04-07T05:12:39.56Z</time></trkpt><trkpt lat="46.6352388" lon="12.4619475"><ele>1384.0</ele><time>2026-04-07T05:12:42.56Z</time></trkpt><trkpt lat="46.6353039" lon="12.4618816"><ele>1385.3333333333335</ele><time>2026-04-07T05:12:45.56Z</time></trkpt><trkpt lat="46.6353698" lon="12.4618159"><ele>1386.6666666666667</ele><time>2026-04-07T05:12:48.56Z</time></trkpt><trkpt lat="46.6354362" lon="12.4617444"><ele>1388.0</ele><time>2026-04-07T05:12:51.559Z</time></trkpt><trkpt lat="46.6354983" lon="12.4616701"><ele>1388.0</ele><time>2026-04-07T05:12:54.56Z</time></trkpt><trkpt lat="46.6355596" lon="12.4615915"><ele>1388.0</ele><time>2026-04-07T05:12:57.559Z</time></trkpt><trkpt lat="46.635621" lon="12.4615064"><ele>1388.0</ele><time>2026-04-07T05:13:00.56Z</time></trkpt><trkpt lat="46.6356837" lon="12.4614259"><ele>1388.0</ele><time>2026-04-07T05:13:03.56Z</time></trkpt><trkpt lat="46.6357482" lon="12.4613551"><ele>1388.0</ele><time>2026-04-07T05:13:06.56Z</time></trkpt><trkpt lat="46.6358066" lon="12.4612733"><ele>1388.0</ele><time>2026-04-07T05:13:09.56Z</time></trkpt><trkpt lat="46.6358664" lon="12.4611993"><ele>1389.5</ele><time>2026-04-07T05:13:12.56Z</time></trkpt><trkpt lat="46.6359224" lon="12.4611242"><ele>1391.0</ele><time>2026-04-07T05:13:15.56Z</time></trkpt><trkpt lat="46.6359841" lon="12.4610479"><ele>1392.5</ele><time>2026-04-07T05:13:18.559Z</time></trkpt><trkpt lat="46.6360453" lon="12.4609696"><ele>1394.0</ele><time>2026-04-07T05:13:21.559Z</time></trkpt><trkpt lat="46.636106" lon="12.4608914"><ele>1395.5</ele><time>2026-04-07T05:13:24.56Z</time></trkpt><trkpt lat="46.6361671" lon="12.4608144"><ele>1397.0</ele><time>2026-04-07T05:13:27.559Z</time></trkpt><trkpt lat="46.6362302" lon="12.4607369"><ele>1397.0</ele><time>2026-04-07T05:13:30.558Z</time></trkpt><trkpt lat="46.6362893" lon="12.4606511"><ele>1397.0</ele><time>2026-04-07T05:13:33.559Z</time></trkpt><trkpt lat="46.6363532" lon="12.4605791"><ele>1397.0</ele><time>2026-04-07T05:13:36.559Z</time></trkpt><trkpt lat="46.6364213" lon="12.4605147"><ele>1397.0</ele><time>2026-04-07T05:13:39.56Z</time></trkpt><trkpt lat="46.6364874" lon="12.4604492"><ele>1397.0</ele><time>2026-04-07T05:13:42.56Z</time></trkpt><trkpt lat="46.6365592" lon="12.4604034"><ele>1397.0</ele><time>2026-04-07T05:13:45.559Z</time></trkpt><trkpt lat="46.6366336" lon="12.46037"><ele>1395.5714285714287</ele><time>2026-04-07T05:13:48.56Z</time></trkpt><trkpt lat="46.6367088" lon="12.4603453"><ele>1394.142857142857</ele><time>2026-04-07T05:13:51.558Z</time></trkpt><trkpt lat="46.6367831" lon="12.4603166"><ele>1392.7142857142858</ele><time>2026-04-07T05:13:54.559Z</time></trkpt><trkpt lat="46.6368487" lon="12.4602856"><ele>1391.2857142857142</ele><time>2026-04-07T05:13:57.559Z</time></trkpt><trkpt lat="46.6369152" lon="12.460272"><ele>1389.857142857143</ele><time>2026-04-07T05:14:00.558Z</time></trkpt><trkpt lat="46.6369839" lon="12.4602464"><ele>1388.4285714285716</ele><time>2026-04-07T05:14:03.558Z</time></trkpt><trkpt lat="46.637053" lon="12.4602114"><ele>1387.0</ele><time>2026-04-07T05:14:06.56Z</time></trkpt><trkpt lat="46.6371214" lon="12.460176"><ele>1387.0</ele><time>2026-04-07T05:14:09.559Z</time></trkpt><trkpt lat="46.6371838" lon="12.4601274"><ele>1387.0</ele><time>2026-04-07T05:14:12.559Z</time></trkpt><trkpt lat="46.6372484" lon="12.4600713"><ele>1387.0</ele><time>2026-04-07T05:14:15.56Z</time></trkpt><trkpt lat="46.6373126" lon="12.4600088"><ele>1387.0</ele><time>2026-04-07T05:14:18.561Z</time></trkpt><trkpt lat="46.6373739" lon="12.4599529"><ele>1387.0</ele><time>2026-04-07T05:14:21.56Z</time></trkpt><trkpt lat="46.6374363" lon="12.4598829"><ele>1387.0</ele><time>2026-04-07T05:14:24.561Z</time></trkpt><trkpt lat="46.6374986" lon="12.4598241"><ele>1387.0</ele><time>2026-04-07T05:14:27.561Z</time></trkpt><trkpt lat="46.6375625" lon="12.4597685"><ele>1387.0</ele><time>2026-04-07T05:14:30.56Z</time></trkpt><trkpt lat="46.6376278" lon="12.4597073"><ele>1387.0</ele><time>2026-04-07T05:14:33.56Z</time></trkpt><trkpt lat="46.6376915" lon="12.4596551"><ele>1387.0</ele><time>2026-04-07T05:14:36.56Z</time></trkpt><trkpt lat="46.637751" lon="12.4596152"><ele>1387.0</ele><time>2026-04-07T05:14:39.561Z</time></trkpt><trkpt lat="46.6378136" lon="12.4595589"><ele>1387.0</ele><time>2026-04-07T05:14:42.561Z</time></trkpt><trkpt lat="46.6378761" lon="12.4594994"><ele>1387.0</ele><time>2026-04-07T05:14:45.561Z</time></trkpt><trkpt lat="46.6379374" lon="12.4594392"><ele>1387.0</ele><time>2026-04-07T05:14:48.56Z</time></trkpt><trkpt lat="46.6380004" lon="12.4593733"><ele>1387.4285714285716</ele><time>2026-04-07T05:14:51.561Z</time></trkpt><trkpt lat="46.6380669" lon="12.4593228"><ele>1387.857142857143</ele><time>2026-04-07T05:14:54.56Z</time></trkpt><trkpt lat="46.6381284" lon="12.4592643"><ele>1388.2857142857142</ele><time>2026-04-07T05:14:57.561Z</time></trkpt><trkpt lat="46.6381937" lon="12.4592056"><ele>1388.7142857142858</ele><time>2026-04-07T05:15:00.56Z</time></trkpt><trkpt lat="46.6382569" lon="12.4591423"><ele>1389.142857142857</ele><time>2026-04-07T05:15:03.559Z</time></trkpt><trkpt lat="46.6383157" lon="12.4590794"><ele>1389.5714285714287</ele><time>2026-04-07T05:15:06.56Z</time></trkpt><trkpt lat="46.6383736" lon="12.4590133"><ele>1390.0</ele><time>2026-04-07T05:15:09.561Z</time></trkpt><trkpt lat="46.6384342" lon="12.458946"><ele>1390.0000000000002</ele><time>2026-04-07T05:15:12.561Z</time></trkpt><trkpt lat="46.6384901" lon="12.4588685"><ele>1390.0</ele><time>2026-04-07T05:15:15.561Z</time></trkpt><trkpt lat="46.6385429" lon="12.4587951"><ele>1390.0</ele><time>2026-04-07T05:15:18.561Z</time></trkpt><trkpt lat="46.6385957" lon="12.4587198"><ele>1390.0</ele><time>2026-04-07T05:15:21.56Z</time></trkpt><trkpt lat="46.638655" lon="12.4586553"><ele>1390.0</ele><time>2026-04-07T05:15:24.56Z</time></trkpt><trkpt lat="46.6387168" lon="12.4586051"><ele>1390.0000000000002</ele><time>2026-04-07T05:15:27.561Z</time></trkpt><trkpt lat="46.6387753" lon="12.4585477"><ele>1390.0</ele><time>2026-04-07T05:15:30.561Z</time></trkpt><trkpt lat="46.6388348" lon="12.4585078"><ele>1391.5</ele><time>2026-04-07T05:15:33.561Z</time></trkpt><trkpt lat="46.6388919" lon="12.4584561"><ele>1393.0</ele><time>2026-04-07T05:15:36.56Z</time></trkpt><trkpt lat="46.6389563" lon="12.4584129"><ele>1394.5</ele><time>2026-04-07T05:15:41.56Z</time></trkpt><trkpt lat="46.6390315" lon="12.4583349"><ele>1396.0</ele><time>2026-04-07T05:15:43.56Z</time></trkpt><trkpt lat="46.639094" lon="12.4582705"><ele>1397.5</ele><time>2026-04-07T05:15:46.561Z</time></trkpt><trkpt lat="46.6391547" lon="12.4582034"><ele>1399.0</ele><time>2026-04-07T05:15:49.561Z</time></trkpt><trkpt lat="46.6392118" lon="12.4581405"><ele>1399.0</ele><time>2026-04-07T05:15:52.56Z</time></trkpt><trkpt lat="46.639271" lon="12.4580713"><ele>1399.0</ele><time>2026-04-07T05:15:55.56Z</time></trkpt><trkpt lat="46.6393316" lon="12.4580082"><ele>1399.0</ele><time>2026-04-07T05:15:58.559Z</time></trkpt><trkpt lat="46.6393939" lon="12.457934"><ele>1399.0</ele><time>2026-04-07T05:16:01.56Z</time></trkpt><trkpt lat="46.6394546" lon="12.4578656"><ele>1399.0</ele><time>2026-04-07T05:16:04.561Z</time></trkpt><trkpt lat="46.6395129" lon="12.4578108"><ele>1399.0</ele><time>2026-04-07T05:16:07.561Z</time></trkpt><trkpt lat="46.6395747" lon="12.4577597"><ele>1399.0</ele><time>2026-04-07T05:16:10.56Z</time></trkpt><trkpt lat="46.6396345" lon="12.4577118"><ele>1400.2857142857142</ele><time>2026-04-07T05:16:13.559Z</time></trkpt><trkpt lat="46.6396911" lon="12.4576577"><ele>1401.5714285714287</ele><time>2026-04-07T05:16:16.56Z</time></trkpt><trkpt lat="46.6397517" lon="12.4576053"><ele>1402.857142857143</ele><time>2026-04-07T05:16:19.561Z</time></trkpt><trkpt lat="46.6398145" lon="12.4575508"><ele>1404.142857142857</ele><time>2026-04-07T05:16:22.561Z</time></trkpt><trkpt lat="46.6398798" lon="12.4574937"><ele>1405.4285714285713</ele><time>2026-04-07T05:16:25.561Z</time></trkpt><trkpt lat="46.6399395" lon="12.4574286"><ele>1406.7142857142858</ele><time>2026-04-07T05:16:28.561Z</time></trkpt><trkpt lat="46.640001" lon="12.457367"><ele>1408.0</ele><time>2026-04-07T05:16:31.561Z</time></trkpt><trkpt lat="46.6400655" lon="12.4573089"><ele>1408.0</ele><time>2026-04-07T05:16:34.561Z</time></trkpt><trkpt lat="46.6401275" lon="12.4572712"><ele>1408.0</ele><time>2026-04-07T05:16:37.56Z</time></trkpt><trkpt lat="46.6401937" lon="12.4572189"><ele>1408.0</ele><time>2026-04-07T05:16:40.561Z</time></trkpt><trkpt lat="46.6402592" lon="12.4571726"><ele>1408.0</ele><time>2026-04-07T05:16:43.56Z</time></trkpt><trkpt lat="46.6403198" lon="12.4571332"><ele>1408.0</ele><time>2026-04-07T05:16:46.561Z</time></trkpt><trkpt lat="46.6403842" lon="12.4570824"><ele>1408.0</ele><time>2026-04-07T05:16:49.561Z</time></trkpt><trkpt lat="46.6404513" lon="12.4570238"><ele>1408.0</ele><time>2026-04-07T05:16:52.561Z</time></trkpt><trkpt lat="46.6405189" lon="12.4569777"><ele>1407.0</ele><time>2026-04-07T05:16:55.559Z</time></trkpt><trkpt lat="46.6405866" lon="12.4569348"><ele>1406.0</ele><time>2026-04-07T05:16:58.559Z</time></trkpt><trkpt lat="46.640653" lon="12.4568824"><ele>1405.0</ele><time>2026-04-07T05:17:01.561Z</time></trkpt><trkpt lat="46.6407179" lon="12.4568339"><ele>1404.0</ele><time>2026-04-07T05:17:04.56Z</time></trkpt><trkpt lat="46.6407853" lon="12.4567864"><ele>1403.0</ele><time>2026-04-07T05:17:07.56Z</time></trkpt><trkpt lat="46.6408589" lon="12.4567452"><ele>1402.0</ele><time>2026-04-07T05:17:11.561Z</time></trkpt><trkpt lat="46.6409238" lon="12.4567214"><ele>1401.0</ele><time>2026-04-07T05:17:15.561Z</time></trkpt><trkpt lat="46.6409969" lon="12.456667"><ele>1401.0</ele><time>2026-04-07T05:17:19.561Z</time></trkpt><trkpt lat="46.6410615" lon="12.4566186"><ele>1401.0</ele><time>2026-04-07T05:17:22.559Z</time></trkpt><trkpt lat="46.6411236" lon="12.4565663"><ele>1401.0</ele><time>2026-04-07T05:17:25.56Z</time></trkpt><trkpt lat="46.6411887" lon="12.4565194"><ele>1401.0</ele><time>2026-04-07T05:17:28.561Z</time></trkpt><trkpt lat="46.6412552" lon="12.4564683"><ele>1401.0</ele><time>2026-04-07T05:17:31.56Z</time></trkpt><trkpt lat="46.6413166" lon="12.4564133"><ele>1401.0</ele><time>2026-04-07T05:17:34.56Z</time></trkpt><trkpt lat="46.6413781" lon="12.4563607"><ele>1401.0</ele><time>2026-04-07T05:17:37.561Z</time></trkpt><trkpt lat="46.6414414" lon="12.4562973"><ele>1401.8333333333333</ele><time>2026-04-07T05:17:40.561Z</time></trkpt><trkpt lat="46.6415022" lon="12.456234"><ele>1402.6666666666667</ele><time>2026-04-07T05:17:43.561Z</time></trkpt><trkpt lat="46.6415663" lon="12.456183"><ele>1403.5</ele><time>2026-04-07T05:17:46.56Z</time></trkpt><trkpt lat="46.6416322" lon="12.4561308"><ele>1404.3333333333335</ele><time>2026-04-07T05:17:49.561Z</time></trkpt><trkpt lat="46.6416975" lon="12.4560758"><ele>1405.1666666666667</ele><time>2026-04-07T05:17:52.56Z</time></trkpt><trkpt lat="46.6417627" lon="12.4560195"><ele>1406.0</ele><time>2026-04-07T05:17:55.561Z</time></trkpt><trkpt lat="46.6418314" lon="12.4559734"><ele>1406.0</ele><time>2026-04-07T05:17:58.561Z</time></trkpt><trkpt lat="46.6418996" lon="12.4559306"><ele>1406.0</ele><time>2026-04-07T05:18:01.561Z</time></trkpt><trkpt lat="46.641965" lon="12.4558775"><ele>1406.0</ele><time>2026-04-07T05:18:04.559Z</time></trkpt><trkpt lat="46.6420327" lon="12.4558436"><ele>1406.0</ele><time>2026-04-07T05:18:07.561Z</time></trkpt><trkpt lat="46.6420987" lon="12.4557979"><ele>1406.0</ele><time>2026-04-07T05:18:10.559Z</time></trkpt><trkpt lat="46.642155" lon="12.4557419"><ele>1406.0</ele><time>2026-04-07T05:18:13.561Z</time></trkpt><trkpt lat="46.6422156" lon="12.4556767"><ele>1406.0</ele><time>2026-04-07T05:18:16.561Z</time></trkpt><trkpt lat="46.642267" lon="12.4556039"><ele>1408.0</ele><time>2026-04-07T05:18:19.56Z</time></trkpt><trkpt lat="46.6423214" lon="12.4555167"><ele>1410.0</ele><time>2026-04-07T05:18:22.559Z</time></trkpt><trkpt lat="46.6423774" lon="12.4554354"><ele>1412.0</ele><time>2026-04-07T05:18:25.56Z</time></trkpt><trkpt lat="46.6424402" lon="12.4553569"><ele>1414.0</ele><time>2026-04-07T05:18:28.561Z</time></trkpt><trkpt lat="46.6425055" lon="12.4552767"><ele>1416.0</ele><time>2026-04-07T05:18:31.561Z</time></trkpt><trkpt lat="46.6425693" lon="12.4551972"><ele>1418.0</ele><time>2026-04-07T05:18:34.56Z</time></trkpt><trkpt lat="46.6426333" lon="12.455117"><ele>1418.0</ele><time>2026-04-07T05:18:37.56Z</time></trkpt><trkpt lat="46.6426978" lon="12.455041"><ele>1418.0</ele><time>2026-04-07T05:18:40.56Z</time></trkpt><trkpt lat="46.642763" lon="12.4549662"><ele>1418.0</ele><time>2026-04-07T05:18:43.561Z</time></trkpt><trkpt lat="46.6428217" lon="12.4548981"><ele>1418.0</ele><time>2026-04-07T05:18:46.561Z</time></trkpt><trkpt lat="46.6428681" lon="12.4548358"><ele>1418.0</ele><time>2026-04-07T05:18:48.559Z</time></trkpt><trkpt lat="46.6429338" lon="12.4547548"><ele>1418.0</ele><time>2026-04-07T05:18:51.561Z</time></trkpt><trkpt lat="46.6430005" lon="12.454684"><ele>1419.5</ele><time>2026-04-07T05:18:54.56Z</time></trkpt><trkpt lat="46.6430688" lon="12.4546221"><ele>1421.0</ele><time>2026-04-07T05:18:57.561Z</time></trkpt><trkpt lat="46.6431347" lon="12.4545608"><ele>1422.5</ele><time>2026-04-07T05:19:00.56Z</time></trkpt><trkpt lat="46.6431968" lon="12.4545109"><ele>1424.0</ele><time>2026-04-07T05:19:03.56Z</time></trkpt><trkpt lat="46.643265" lon="12.4544534"><ele>1425.5</ele><time>2026-04-07T05:19:06.56Z</time></trkpt><trkpt lat="46.6433228" lon="12.4543783"><ele>1427.0</ele><time>2026-04-07T05:19:09.561Z</time></trkpt><trkpt lat="46.6433902" lon="12.4543213"><ele>1427.0</ele><time>2026-04-07T05:19:12.561Z</time></trkpt><trkpt lat="46.6434486" lon="12.4542831"><ele>1427.0</ele><time>2026-04-07T05:19:15.561Z</time></trkpt><trkpt lat="46.6435001" lon="12.4542098"><ele>1427.0</ele><time>2026-04-07T05:19:18.562Z</time></trkpt><trkpt lat="46.6435588" lon="12.4541287"><ele>1427.0</ele><time>2026-04-07T05:19:21.561Z</time></trkpt><trkpt lat="46.6436074" lon="12.4540429"><ele>1427.0</ele><time>2026-04-07T05:19:24.561Z</time></trkpt><trkpt lat="46.6436518" lon="12.4539518"><ele>1427.0</ele><time>2026-04-07T05:19:27.562Z</time></trkpt><trkpt lat="46.6437043" lon="12.4538709"><ele>1427.0</ele><time>2026-04-07T05:19:30.562Z</time></trkpt><trkpt lat="46.643779" lon="12.4538137"><ele>1429.3333333333335</ele><time>2026-04-07T05:19:33.56Z</time></trkpt><trkpt lat="46.6438539" lon="12.4537437"><ele>1431.6666666666667</ele><time>2026-04-07T05:19:36.561Z</time></trkpt><trkpt lat="46.6439188" lon="12.4536579"><ele>1434.0</ele><time>2026-04-07T05:19:39.561Z</time></trkpt><trkpt lat="46.6439797" lon="12.4535787"><ele>1436.3333333333333</ele><time>2026-04-07T05:19:42.562Z</time></trkpt><trkpt lat="46.6440419" lon="12.4535049"><ele>1438.6666666666665</ele><time>2026-04-07T05:19:45.562Z</time></trkpt><trkpt lat="46.6441028" lon="12.4534293"><ele>1441.0</ele><time>2026-04-07T05:19:48.561Z</time></trkpt><trkpt lat="46.6441588" lon="12.4533524"><ele>1441.0</ele><time>2026-04-07T05:19:51.561Z</time></trkpt><trkpt lat="46.6442124" lon="12.4532559"><ele>1441.0</ele><time>2026-04-07T05:19:55.562Z</time></trkpt><trkpt lat="46.6442449" lon="12.4531473"><ele>1441.0</ele><time>2026-04-07T05:19:58.562Z</time></trkpt><trkpt lat="46.6442668" lon="12.4530231"><ele>1441.0</ele><time>2026-04-07T05:20:01.562Z</time></trkpt><trkpt lat="46.6442978" lon="12.4529098"><ele>1441.0</ele><time>2026-04-07T05:20:04.56Z</time></trkpt><trkpt lat="46.6443348" lon="12.4527628"><ele>1441.0</ele><time>2026-04-07T05:20:08.561Z</time></trkpt><trkpt lat="46.6443618" lon="12.4526588"><ele>1441.0</ele><time>2026-04-07T05:20:11.562Z</time></trkpt><trkpt lat="46.6443927" lon="12.4525553"><ele>1441.0</ele><time>2026-04-07T05:20:14.561Z</time></trkpt><trkpt lat="46.6444325" lon="12.4524613"><ele>1441.0</ele><time>2026-04-07T05:20:17.561Z</time></trkpt><trkpt lat="46.6444722" lon="12.4523725"><ele>1441.0</ele><time>2026-04-07T05:20:20.561Z</time></trkpt><trkpt lat="46.6445186" lon="12.4522873"><ele>1441.0</ele><time>2026-04-07T05:20:23.562Z</time></trkpt><trkpt lat="46.6445645" lon="12.4522039"><ele>1441.0</ele><time>2026-04-07T05:20:26.562Z</time></trkpt><trkpt lat="46.6446198" lon="12.4521343"><ele>1441.0</ele><time>2026-04-07T05:20:29.562Z</time></trkpt><trkpt lat="46.6446784" lon="12.4520627"><ele>1441.6666666666665</ele><time>2026-04-07T05:20:32.562Z</time></trkpt><trkpt lat="46.6447425" lon="12.4519969"><ele>1442.3333333333333</ele><time>2026-04-07T05:20:35.561Z</time></trkpt><trkpt lat="46.6448021" lon="12.4519278"><ele>1443.0</ele><time>2026-04-07T05:20:38.562Z</time></trkpt><trkpt lat="46.6448562" lon="12.4518748"><ele>1443.6666666666667</ele><time>2026-04-07T05:20:41.561Z</time></trkpt><trkpt lat="46.6449159" lon="12.4518074"><ele>1444.3333333333335</ele><time>2026-04-07T05:20:44.561Z</time></trkpt><trkpt lat="46.6449807" lon="12.4517458"><ele>1445.0</ele><time>2026-04-07T05:20:47.561Z</time></trkpt><trkpt lat="46.645045" lon="12.4516786"><ele>1445.0</ele><time>2026-04-07T05:20:50.562Z</time></trkpt><trkpt lat="46.6451098" lon="12.4516008"><ele>1445.0</ele><time>2026-04-07T05:20:53.562Z</time></trkpt><trkpt lat="46.6451714" lon="12.4515249"><ele>1445.0</ele><time>2026-04-07T05:20:56.561Z</time></trkpt><trkpt lat="46.6452325" lon="12.4514462"><ele>1445.0</ele><time>2026-04-07T05:20:59.562Z</time></trkpt><trkpt lat="46.6452952" lon="12.4513681"><ele>1445.0</ele><time>2026-04-07T05:21:02.562Z</time></trkpt><trkpt lat="46.6453565" lon="12.4512888"><ele>1445.0</ele><time>2026-04-07T05:21:05.562Z</time></trkpt><trkpt lat="46.6454178" lon="12.4512153"><ele>1445.5</ele><time>2026-04-07T05:21:08.561Z</time></trkpt><trkpt lat="46.6454826" lon="12.4511391"><ele>1446.0</ele><time>2026-04-07T05:21:11.562Z</time></trkpt><trkpt lat="46.6455463" lon="12.4510871"><ele>1446.5</ele><time>2026-04-07T05:21:14.561Z</time></trkpt><trkpt lat="46.6456098" lon="12.4510374"><ele>1447.0</ele><time>2026-04-07T05:21:17.562Z</time></trkpt><trkpt lat="46.6456822" lon="12.4509873"><ele>1447.5</ele><time>2026-04-07T05:21:20.562Z</time></trkpt><trkpt lat="46.6457555" lon="12.4509468"><ele>1448.0</ele><time>2026-04-07T05:21:23.562Z</time></trkpt><trkpt lat="46.6458261" lon="12.4508953"><ele>1448.0</ele><time>2026-04-07T05:21:26.562Z</time></trkpt><trkpt lat="46.6459003" lon="12.4508422"><ele>1448.0</ele><time>2026-04-07T05:21:29.562Z</time></trkpt><trkpt lat="46.6459695" lon="12.4507855"><ele>1448.0</ele><time>2026-04-07T05:21:32.561Z</time></trkpt><trkpt lat="46.6460365" lon="12.450724"><ele>1448.0</ele><time>2026-04-07T05:21:35.561Z</time></trkpt><trkpt lat="46.646098" lon="12.4506625"><ele>1448.0</ele><time>2026-04-07T05:21:38.561Z</time></trkpt><trkpt lat="46.6461679" lon="12.4505956"><ele>1448.0</ele><time>2026-04-07T05:21:41.561Z</time></trkpt><trkpt lat="46.6462422" lon="12.4505378"><ele>1449.1666666666667</ele><time>2026-04-07T05:21:44.562Z</time></trkpt><trkpt lat="46.6463143" lon="12.4504825"><ele>1450.3333333333335</ele><time>2026-04-07T05:21:47.562Z</time></trkpt><trkpt lat="46.6463783" lon="12.4504177"><ele>1451.5</ele><time>2026-04-07T05:21:50.561Z</time></trkpt><trkpt lat="46.6464529" lon="12.4503608"><ele>1452.6666666666667</ele><time>2026-04-07T05:21:53.562Z</time></trkpt><trkpt lat="46.6465199" lon="12.4502959"><ele>1453.8333333333333</ele><time>2026-04-07T05:21:56.561Z</time></trkpt><trkpt lat="46.6465851" lon="12.4502301"><ele>1455.0</ele><time>2026-04-07T05:21:59.562Z</time></trkpt><trkpt lat="46.6466475" lon="12.4501506"><ele>1455.0</ele><time>2026-04-07T05:22:02.562Z</time></trkpt><trkpt lat="46.6467108" lon="12.4500718"><ele>1455.0</ele><time>2026-04-07T05:22:05.561Z</time></trkpt><trkpt lat="46.6467722" lon="12.4499931"><ele>1455.0</ele><time>2026-04-07T05:22:08.562Z</time></trkpt><trkpt lat="46.6468377" lon="12.4499219"><ele>1455.0</ele><time>2026-04-07T05:22:11.562Z</time></trkpt><trkpt lat="46.6469017" lon="12.4498515"><ele>1455.0</ele><time>2026-04-07T05:22:14.561Z</time></trkpt><trkpt lat="46.6469655" lon="12.4497776"><ele>1455.0</ele><time>2026-04-07T05:22:17.562Z</time></trkpt><trkpt lat="46.6470255" lon="12.4497065"><ele>1457.0</ele><time>2026-04-07T05:22:20.562Z</time></trkpt><trkpt lat="46.6470858" lon="12.4496294"><ele>1459.0</ele><time>2026-04-07T05:22:23.56Z</time></trkpt><trkpt lat="46.647149" lon="12.4495602"><ele>1461.0</ele><time>2026-04-07T05:22:26.561Z</time></trkpt><trkpt lat="46.6472132" lon="12.4494929"><ele>1463.0</ele><time>2026-04-07T05:22:29.561Z</time></trkpt><trkpt lat="46.647281" lon="12.4494368"><ele>1465.0</ele><time>2026-04-07T05:22:32.562Z</time></trkpt><trkpt lat="46.6473472" lon="12.4493727"><ele>1467.0</ele><time>2026-04-07T05:22:35.561Z</time></trkpt><trkpt lat="46.6474117" lon="12.4493046"><ele>1467.0</ele><time>2026-04-07T05:22:38.562Z</time></trkpt><trkpt lat="46.6474747" lon="12.4492307"><ele>1467.0</ele><time>2026-04-07T05:22:41.562Z</time></trkpt><trkpt lat="46.6475349" lon="12.4491542"><ele>1467.0</ele><time>2026-04-07T05:22:44.562Z</time></trkpt><trkpt lat="46.6475977" lon="12.4490796"><ele>1467.0</ele><time>2026-04-07T05:22:47.561Z</time></trkpt><trkpt lat="46.6476527" lon="12.4489989"><ele>1467.0</ele><time>2026-04-07T05:22:50.562Z</time></trkpt><trkpt lat="46.6477041" lon="12.4489159"><ele>1467.0</ele><time>2026-04-07T05:22:53.562Z</time></trkpt><trkpt lat="46.6477581" lon="12.4488351"><ele>1467.1666666666667</ele><time>2026-04-07T05:22:56.561Z</time></trkpt><trkpt lat="46.647806" lon="12.4487387"><ele>1467.3333333333333</ele><time>2026-04-07T05:22:59.562Z</time></trkpt><trkpt lat="46.6478459" lon="12.4486318"><ele>1467.5</ele><time>2026-04-07T05:23:02.562Z</time></trkpt><trkpt lat="46.6478844" lon="12.4485302"><ele>1467.6666666666665</ele><time>2026-04-07T05:23:05.562Z</time></trkpt><trkpt lat="46.6479114" lon="12.4484301"><ele>1467.8333333333333</ele><time>2026-04-07T05:23:08.561Z</time></trkpt><trkpt lat="46.647937" lon="12.4483202"><ele>1468.0</ele><time>2026-04-07T05:23:11.56Z</time></trkpt><trkpt lat="46.647955" lon="12.4482037"><ele>1468.0</ele><time>2026-04-07T05:23:14.562Z</time></trkpt><trkpt lat="46.6479832" lon="12.4480887"><ele>1468.0</ele><time>2026-04-07T05:23:17.561Z</time></trkpt><trkpt lat="46.6480214" lon="12.4479778"><ele>1468.0</ele><time>2026-04-07T05:23:20.562Z</time></trkpt><trkpt lat="46.6481116" lon="12.4478901"><ele>1468.0</ele><time>2026-04-07T05:23:24.562Z</time></trkpt><trkpt lat="46.6481945" lon="12.4479165"><ele>1468.0</ele><time>2026-04-07T05:23:27.561Z</time></trkpt><trkpt lat="46.6482569" lon="12.4480117"><ele>1468.0</ele><time>2026-04-07T05:23:30.561Z</time></trkpt><trkpt lat="46.6482561" lon="12.4481385"><ele>1468.0</ele><time>2026-04-07T05:23:33.561Z</time></trkpt><trkpt lat="46.6482117" lon="12.4482556"><ele>1468.0</ele><time>2026-04-07T05:23:36.562Z</time></trkpt><trkpt lat="46.6481596" lon="12.4483609"><ele>1468.0</ele><time>2026-04-07T05:23:39.562Z</time></trkpt><trkpt lat="46.6480996" lon="12.4484529"><ele>1468.0</ele><time>2026-04-07T05:23:42.562Z</time></trkpt><trkpt lat="46.648036" lon="12.4485401"><ele>1468.0</ele><time>2026-04-07T05:23:45.562Z</time></trkpt><trkpt lat="46.6479874" lon="12.4486442"><ele>1468.0</ele><time>2026-04-07T05:23:48.562Z</time></trkpt><trkpt lat="46.6479393" lon="12.4487469"><ele>1468.0</ele><time>2026-04-07T05:23:51.562Z</time></trkpt><trkpt lat="46.6479065" lon="12.4488606"><ele>1468.0</ele><time>2026-04-07T05:23:54.561Z</time></trkpt><trkpt lat="46.6478746" lon="12.4489765"><ele>1468.0</ele><time>2026-04-07T05:23:57.561Z</time></trkpt><trkpt lat="46.6478511" lon="12.4490974"><ele>1468.0</ele><time>2026-04-07T05:24:00.562Z</time></trkpt><trkpt lat="46.6478233" lon="12.4492168"><ele>1468.0</ele><time>2026-04-07T05:24:03.561Z</time></trkpt><trkpt lat="46.6477861" lon="12.4493315"><ele>1467.8333333333333</ele><time>2026-04-07T05:24:06.563Z</time></trkpt><trkpt lat="46.6477414" lon="12.4494349"><ele>1467.6666666666665</ele><time>2026-04-07T05:24:09.562Z</time></trkpt><trkpt lat="46.6476927" lon="12.4495364"><ele>1467.5</ele><time>2026-04-07T05:24:12.562Z</time></trkpt><trkpt lat="46.6476367" lon="12.4496276"><ele>1467.3333333333333</ele><time>2026-04-07T05:24:15.563Z</time></trkpt><trkpt lat="46.6475729" lon="12.4497116"><ele>1467.1666666666667</ele><time>2026-04-07T05:24:18.562Z</time></trkpt><trkpt lat="46.6475075" lon="12.4497936"><ele>1467.0</ele><time>2026-04-07T05:24:21.562Z</time></trkpt><trkpt lat="46.6474442" lon="12.4498775"><ele>1470.0</ele><time>2026-04-07T05:24:24.562Z</time></trkpt><trkpt lat="46.6473591" lon="12.4499893"><ele>1473.0</ele><time>2026-04-07T05:24:28.563Z</time></trkpt><trkpt lat="46.647295" lon="12.4500733"><ele>1476.0</ele><time>2026-04-07T05:24:31.562Z</time></trkpt><trkpt lat="46.6472291" lon="12.450162"><ele>1479.0</ele><time>2026-04-07T05:24:34.563Z</time></trkpt><trkpt lat="46.6471636" lon="12.4502509"><ele>1482.0</ele><time>2026-04-07T05:24:37.562Z</time></trkpt><trkpt lat="46.6470937" lon="12.4503341"><ele>1482.0</ele><time>2026-04-07T05:24:40.563Z</time></trkpt><trkpt lat="46.6470217" lon="12.4504133"><ele>1482.0</ele><time>2026-04-07T05:24:43.561Z</time></trkpt><trkpt lat="46.6469492" lon="12.4504902"><ele>1482.0</ele><time>2026-04-07T05:24:46.562Z</time></trkpt><trkpt lat="46.6468745" lon="12.4505739"><ele>1482.0</ele><time>2026-04-07T05:24:49.563Z</time></trkpt><trkpt lat="46.6468241" lon="12.4506319"><ele>1482.0</ele><time>2026-04-07T05:24:51.562Z</time></trkpt><trkpt lat="46.646774" lon="12.4506916"><ele>1482.0</ele><time>2026-04-07T05:24:53.562Z</time></trkpt><trkpt lat="46.6467243" lon="12.450753"><ele>1481.3333333333333</ele><time>2026-04-07T05:24:55.561Z</time></trkpt><trkpt lat="46.6466561" lon="12.4508432"><ele>1480.6666666666667</ele><time>2026-04-07T05:24:58.563Z</time></trkpt><trkpt lat="46.6465955" lon="12.450929"><ele>1480.0</ele><time>2026-04-07T05:25:01.563Z</time></trkpt><trkpt lat="46.6465291" lon="12.4510129"><ele>1479.3333333333335</ele><time>2026-04-07T05:25:04.563Z</time></trkpt><trkpt lat="46.6464557" lon="12.451092"><ele>1478.6666666666667</ele><time>2026-04-07T05:25:07.563Z</time></trkpt><trkpt lat="46.6463789" lon="12.4511636"><ele>1478.0</ele><time>2026-04-07T05:25:10.563Z</time></trkpt><trkpt lat="46.6462955" lon="12.451229"><ele>1476.5</ele><time>2026-04-07T05:25:13.563Z</time></trkpt><trkpt lat="46.646219" lon="12.4513062"><ele>1475.0</ele><time>2026-04-07T05:25:16.563Z</time></trkpt><trkpt lat="46.6461504" lon="12.451379"><ele>1473.5</ele><time>2026-04-07T05:25:19.563Z</time></trkpt><trkpt lat="46.6460821" lon="12.4514617"><ele>1472.0</ele><time>2026-04-07T05:25:22.562Z</time></trkpt><trkpt lat="46.6460212" lon="12.4515488"><ele>1470.5</ele><time>2026-04-07T05:25:25.562Z</time></trkpt><trkpt lat="46.6459551" lon="12.4516321"><ele>1469.0</ele><time>2026-04-07T05:25:28.563Z</time></trkpt><trkpt lat="46.6458896" lon="12.4517164"><ele>1469.0</ele><time>2026-04-07T05:25:31.563Z</time></trkpt><trkpt lat="46.6458312" lon="12.4518056"><ele>1469.0</ele><time>2026-04-07T05:25:34.563Z</time></trkpt><trkpt lat="46.6457982" lon="12.4519135"><ele>1469.0</ele><time>2026-04-07T05:25:37.563Z</time></trkpt><trkpt lat="46.6458036" lon="12.4520209"><ele>1469.0</ele><time>2026-04-07T05:25:40.563Z</time></trkpt><trkpt lat="46.6458586" lon="12.4521033"><ele>1469.0</ele><time>2026-04-07T05:25:43.563Z</time></trkpt><trkpt lat="46.6459398" lon="12.452142"><ele>1469.0</ele><time>2026-04-07T05:25:46.561Z</time></trkpt><trkpt lat="46.6460195" lon="12.4521069"><ele>1469.0</ele><time>2026-04-07T05:25:49.563Z</time></trkpt><trkpt lat="46.6460868" lon="12.4520211"><ele>1469.0</ele><time>2026-04-07T05:25:52.561Z</time></trkpt><trkpt lat="46.6461259" lon="12.451906"><ele>1469.0</ele><time>2026-04-07T05:25:55.563Z</time></trkpt><trkpt lat="46.6461497" lon="12.4517942"><ele>1469.0</ele><time>2026-04-07T05:25:58.563Z</time></trkpt><trkpt lat="46.6461706" lon="12.4516635"><ele>1469.0</ele><time>2026-04-07T05:26:01.562Z</time></trkpt><trkpt lat="46.6462125" lon="12.4515434"><ele>1469.0</ele><time>2026-04-07T05:26:04.563Z</time></trkpt><trkpt lat="46.6462662" lon="12.4514418"><ele>1470.5</ele><time>2026-04-07T05:26:07.563Z</time></trkpt><trkpt lat="46.6463274" lon="12.4513578"><ele>1472.0</ele><time>2026-04-07T05:26:10.561Z</time></trkpt><trkpt lat="46.6463915" lon="12.4512773"><ele>1473.5</ele><time>2026-04-07T05:26:13.563Z</time></trkpt><trkpt lat="46.6464606" lon="12.4512"><ele>1475.0</ele><time>2026-04-07T05:26:16.563Z</time></trkpt><trkpt lat="46.6465356" lon="12.451139"><ele>1476.5</ele><time>2026-04-07T05:26:19.563Z</time></trkpt><trkpt lat="46.6466134" lon="12.4510834"><ele>1478.0</ele><time>2026-04-07T05:26:22.562Z</time></trkpt><trkpt lat="46.6466895" lon="12.4510287"><ele>1478.0</ele><time>2026-04-07T05:26:25.563Z</time></trkpt><trkpt lat="46.6467661" lon="12.4509793"><ele>1478.0</ele><time>2026-04-07T05:26:28.563Z</time></trkpt><trkpt lat="46.6468427" lon="12.4509204"><ele>1478.0</ele><time>2026-04-07T05:26:31.563Z</time></trkpt><trkpt lat="46.6469415" lon="12.4508422"><ele>1478.0</ele><time>2026-04-07T05:26:35.563Z</time></trkpt><trkpt lat="46.6470153" lon="12.45079"><ele>1478.0</ele><time>2026-04-07T05:26:38.563Z</time></trkpt><trkpt lat="46.6470902" lon="12.4507376"><ele>1478.0</ele><time>2026-04-07T05:26:41.562Z</time></trkpt><trkpt lat="46.6471915" lon="12.4506664"><ele>1478.6666666666667</ele><time>2026-04-07T05:26:45.563Z</time></trkpt><trkpt lat="46.6472598" lon="12.4506175"><ele>1479.3333333333335</ele><time>2026-04-07T05:26:48.563Z</time></trkpt><trkpt lat="46.6473257" lon="12.4505573"><ele>1480.0</ele><time>2026-04-07T05:26:51.562Z</time></trkpt><trkpt lat="46.6473916" lon="12.4504885"><ele>1480.6666666666667</ele><time>2026-04-07T05:26:54.563Z</time></trkpt><trkpt lat="46.6474606" lon="12.4504173"><ele>1481.3333333333333</ele><time>2026-04-07T05:26:57.563Z</time></trkpt><trkpt lat="46.6475284" lon="12.4503531"><ele>1482.0</ele><time>2026-04-07T05:27:00.563Z</time></trkpt><trkpt lat="46.6475924" lon="12.4502933"><ele>1482.0</ele><time>2026-04-07T05:27:03.562Z</time></trkpt><trkpt lat="46.647661" lon="12.4502436"><ele>1482.0</ele><time>2026-04-07T05:27:06.563Z</time></trkpt><trkpt lat="46.6477303" lon="12.4501935"><ele>1482.0</ele><time>2026-04-07T05:27:09.563Z</time></trkpt><trkpt lat="46.6478001" lon="12.4501535"><ele>1482.0</ele><time>2026-04-07T05:27:12.561Z</time></trkpt><trkpt lat="46.6478701" lon="12.4501154"><ele>1482.0</ele><time>2026-04-07T05:27:15.563Z</time></trkpt><trkpt lat="46.6479404" lon="12.4500644"><ele>1482.0</ele><time>2026-04-07T05:27:18.563Z</time></trkpt><trkpt lat="46.6480049" lon="12.4499951"><ele>1484.0</ele><time>2026-04-07T05:27:21.561Z</time></trkpt><trkpt lat="46.6480615" lon="12.4499132"><ele>1486.0</ele><time>2026-04-07T05:27:24.563Z</time></trkpt><trkpt lat="46.6481176" lon="12.449832"><ele>1488.0</ele><time>2026-04-07T05:27:27.562Z</time></trkpt><trkpt lat="46.648171" lon="12.4497526"><ele>1490.0</ele><time>2026-04-07T05:27:30.562Z</time></trkpt><trkpt lat="46.6482243" lon="12.4496708"><ele>1492.0</ele><time>2026-04-07T05:27:33.563Z</time></trkpt><trkpt lat="46.6482762" lon="12.4495878"><ele>1494.0</ele><time>2026-04-07T05:27:36.562Z</time></trkpt><trkpt lat="46.6483321" lon="12.4495071"><ele>1493.9999999999998</ele><time>2026-04-07T05:27:39.563Z</time></trkpt><trkpt lat="46.6483761" lon="12.4494365"><ele>1494.0</ele><time>2026-04-07T05:27:42.563Z</time></trkpt><trkpt lat="46.6484256" lon="12.4493539"><ele>1494.0</ele><time>2026-04-07T05:27:46.563Z</time></trkpt><trkpt lat="46.6484784" lon="12.4492861"><ele>1494.0</ele><time>2026-04-07T05:27:49.563Z</time></trkpt><trkpt lat="46.6485298" lon="12.4492135"><ele>1494.0</ele><time>2026-04-07T05:27:52.561Z</time></trkpt><trkpt lat="46.6485806" lon="12.4491367"><ele>1493.9999999999998</ele><time>2026-04-07T05:27:55.563Z</time></trkpt><trkpt lat="46.6486363" lon="12.4490654"><ele>1494.0</ele><time>2026-04-07T05:27:58.563Z</time></trkpt><trkpt lat="46.6486943" lon="12.4489904"><ele>1494.9999999999998</ele><time>2026-04-07T05:28:01.562Z</time></trkpt><trkpt lat="46.6487522" lon="12.4489215"><ele>1496.0</ele><time>2026-04-07T05:28:04.563Z</time></trkpt><trkpt lat="46.6488117" lon="12.4488603"><ele>1497.0</ele><time>2026-04-07T05:28:07.563Z</time></trkpt><trkpt lat="46.6488768" lon="12.4488066"><ele>1498.0</ele><time>2026-04-07T05:28:10.563Z</time></trkpt><trkpt lat="46.6489468" lon="12.4487673"><ele>1499.0</ele><time>2026-04-07T05:28:13.561Z</time></trkpt><trkpt lat="46.6490175" lon="12.4487307"><ele>1499.9999999999998</ele><time>2026-04-07T05:28:16.562Z</time></trkpt><trkpt lat="46.6490834" lon="12.4486939"><ele>1501.0</ele><time>2026-04-07T05:28:19.562Z</time></trkpt><trkpt lat="46.6491508" lon="12.44866"><ele>1501.0</ele><time>2026-04-07T05:28:22.563Z</time></trkpt><trkpt lat="46.6492149" lon="12.4486124"><ele>1501.0</ele><time>2026-04-07T05:28:25.561Z</time></trkpt><trkpt lat="46.6492781" lon="12.4485578"><ele>1501.0</ele><time>2026-04-07T05:28:28.563Z</time></trkpt><trkpt lat="46.6493413" lon="12.4484845"><ele>1501.0</ele><time>2026-04-07T05:28:31.562Z</time></trkpt><trkpt lat="46.6494039" lon="12.448416"><ele>1501.0</ele><time>2026-04-07T05:28:34.564Z</time></trkpt><trkpt lat="46.6494636" lon="12.4483444"><ele>1501.0</ele><time>2026-04-07T05:28:37.564Z</time></trkpt><trkpt lat="46.6495254" lon="12.4482756"><ele>1504.3333333333333</ele><time>2026-04-07T05:28:40.564Z</time></trkpt><trkpt lat="46.6495848" lon="12.4481999"><ele>1507.6666666666665</ele><time>2026-04-07T05:28:43.564Z</time></trkpt><trkpt lat="46.6496296" lon="12.4481043"><ele>1511.0</ele><time>2026-04-07T05:28:46.563Z</time></trkpt><trkpt lat="46.6496655" lon="12.4480021"><ele>1514.3333333333333</ele><time>2026-04-07T05:28:49.563Z</time></trkpt><trkpt lat="46.6496997" lon="12.4479034"><ele>1517.6666666666667</ele><time>2026-04-07T05:28:52.564Z</time></trkpt><trkpt lat="46.6497317" lon="12.4478052"><ele>1521.0</ele><time>2026-04-07T05:28:55.563Z</time></trkpt><trkpt lat="46.6497607" lon="12.4477054"><ele>1521.0</ele><time>2026-04-07T05:28:58.563Z</time></trkpt><trkpt lat="46.64979" lon="12.4476099"><ele>1521.0</ele><time>2026-04-07T05:29:01.563Z</time></trkpt><trkpt lat="46.6498214" lon="12.4475145"><ele>1521.0</ele><time>2026-04-07T05:29:04.563Z</time></trkpt><trkpt lat="46.6498566" lon="12.4474277"><ele>1521.0</ele><time>2026-04-07T05:29:07.563Z</time></trkpt><trkpt lat="46.6498884" lon="12.4473382"><ele>1521.0</ele><time>2026-04-07T05:29:10.563Z</time></trkpt><trkpt lat="46.6499146" lon="12.4472472"><ele>1521.0</ele><time>2026-04-07T05:29:13.564Z</time></trkpt><trkpt lat="46.6499432" lon="12.4471619"><ele>1521.0</ele><time>2026-04-07T05:29:16.564Z</time></trkpt><trkpt lat="46.6499714" lon="12.4470716"><ele>1520.857142857143</ele><time>2026-04-07T05:29:19.563Z</time></trkpt><trkpt lat="46.6500006" lon="12.446983"><ele>1520.7142857142856</ele><time>2026-04-07T05:29:22.563Z</time></trkpt><trkpt lat="46.650034" lon="12.4468935"><ele>1520.5714285714284</ele><time>2026-04-07T05:29:25.563Z</time></trkpt><trkpt lat="46.6500797" lon="12.4468145"><ele>1520.4285714285716</ele><time>2026-04-07T05:29:28.562Z</time></trkpt><trkpt lat="46.6501328" lon="12.4467421"><ele>1520.2857142857142</ele><time>2026-04-07T05:29:31.563Z</time></trkpt><trkpt lat="46.6501844" lon="12.4466715"><ele>1520.142857142857</ele><time>2026-04-07T05:29:34.563Z</time></trkpt><trkpt lat="46.6502444" lon="12.4466107"><ele>1520.0</ele><time>2026-04-07T05:29:37.564Z</time></trkpt><trkpt lat="46.6503086" lon="12.44656"><ele>1520.0</ele><time>2026-04-07T05:29:40.564Z</time></trkpt><trkpt lat="46.6503732" lon="12.4465112"><ele>1520.0</ele><time>2026-04-07T05:29:43.563Z</time></trkpt><trkpt lat="46.6504346" lon="12.4464566"><ele>1520.0</ele><time>2026-04-07T05:29:46.564Z</time></trkpt><trkpt lat="46.6504965" lon="12.4464065"><ele>1520.0</ele><time>2026-04-07T05:29:49.562Z</time></trkpt><trkpt lat="46.6505596" lon="12.4463622"><ele>1520.0</ele><time>2026-04-07T05:29:52.563Z</time></trkpt><trkpt lat="46.6506216" lon="12.4463246"><ele>1520.0</ele><time>2026-04-07T05:29:55.563Z</time></trkpt><trkpt lat="46.6506888" lon="12.4462998"><ele>1520.0</ele><time>2026-04-07T05:29:58.564Z</time></trkpt><trkpt lat="46.6507602" lon="12.4463114"><ele>1520.0</ele><time>2026-04-07T05:30:01.563Z</time></trkpt><trkpt lat="46.6508239" lon="12.4463889"><ele>1520.0</ele><time>2026-04-07T05:30:04.563Z</time></trkpt><trkpt lat="46.6508689" lon="12.4464832"><ele>1520.0</ele><time>2026-04-07T05:30:07.562Z</time></trkpt><trkpt lat="46.6508805" lon="12.446603"><ele>1520.0</ele><time>2026-04-07T05:30:10.563Z</time></trkpt><trkpt lat="46.6508688" lon="12.4467156"><ele>1520.0</ele><time>2026-04-07T05:30:13.564Z</time></trkpt><trkpt lat="46.6508463" lon="12.4468291"><ele>1520.0</ele><time>2026-04-07T05:30:16.564Z</time></trkpt><trkpt lat="46.6508288" lon="12.4469384"><ele>1520.0</ele><time>2026-04-07T05:30:19.564Z</time></trkpt><trkpt lat="46.6508199" lon="12.4470633"><ele>1520.0</ele><time>2026-04-07T05:30:22.564Z</time></trkpt><trkpt lat="46.6508261" lon="12.4471963"><ele>1520.0</ele><time>2026-04-07T05:30:25.563Z</time></trkpt><trkpt lat="46.6508507" lon="12.4473274"><ele>1520.0</ele><time>2026-04-07T05:30:28.563Z</time></trkpt><trkpt lat="46.6508766" lon="12.4474113"><ele>1520.0</ele><time>2026-04-07T05:30:30.564Z</time></trkpt><trkpt lat="46.6509308" lon="12.4475211"><ele>1520.0</ele><time>2026-04-07T05:30:33.564Z</time></trkpt><trkpt lat="46.6509995" lon="12.4476037"><ele>1520.5</ele><time>2026-04-07T05:30:36.564Z</time></trkpt><trkpt lat="46.6510814" lon="12.4476631"><ele>1521.0</ele><time>2026-04-07T05:30:39.564Z</time></trkpt><trkpt lat="46.6511614" lon="12.4476885"><ele>1521.5</ele><time>2026-04-07T05:30:42.564Z</time></trkpt><trkpt lat="46.6512368" lon="12.4476974"><ele>1522.0</ele><time>2026-04-07T05:30:45.564Z</time></trkpt><trkpt lat="46.6513124" lon="12.4476767"><ele>1522.5</ele><time>2026-04-07T05:30:48.562Z</time></trkpt><trkpt lat="46.6513866" lon="12.4476343"><ele>1523.0</ele><time>2026-04-07T05:30:51.564Z</time></trkpt><trkpt lat="46.6514597" lon="12.4476018"><ele>1523.8333333333335</ele><time>2026-04-07T05:30:54.564Z</time></trkpt><trkpt lat="46.6515262" lon="12.44756"><ele>1524.6666666666667</ele><time>2026-04-07T05:30:57.564Z</time></trkpt><trkpt lat="46.6515865" lon="12.4475193"><ele>1525.5</ele><time>2026-04-07T05:31:00.564Z</time></trkpt><trkpt lat="46.6516615" lon="12.4474893"><ele>1526.3333333333333</ele><time>2026-04-07T05:31:03.564Z</time></trkpt><trkpt lat="46.6517303" lon="12.4474583"><ele>1527.1666666666665</ele><time>2026-04-07T05:31:06.563Z</time></trkpt><trkpt lat="46.6518056" lon="12.4474201"><ele>1528.0</ele><time>2026-04-07T05:31:09.564Z</time></trkpt><trkpt lat="46.6518834" lon="12.447375"><ele>1530.0</ele><time>2026-04-07T05:31:12.563Z</time></trkpt><trkpt lat="46.6519584" lon="12.4473255"><ele>1532.0</ele><time>2026-04-07T05:31:15.564Z</time></trkpt><trkpt lat="46.6520271" lon="12.4472744"><ele>1534.0</ele><time>2026-04-07T05:31:18.563Z</time></trkpt><trkpt lat="46.6520907" lon="12.4472144"><ele>1536.0</ele><time>2026-04-07T05:31:21.564Z</time></trkpt><trkpt lat="46.652174" lon="12.447131"><ele>1538.0000000000002</ele><time>2026-04-07T05:31:25.563Z</time></trkpt><trkpt lat="46.6522357" lon="12.4470653"><ele>1540.0</ele><time>2026-04-07T05:31:28.564Z</time></trkpt><trkpt lat="46.6522956" lon="12.4469968"><ele>1540.0000000000002</ele><time>2026-04-07T05:31:31.564Z</time></trkpt><trkpt lat="46.6523594" lon="12.4469318"><ele>1540.0</ele><time>2026-04-07T05:31:34.563Z</time></trkpt><trkpt lat="46.6524238" lon="12.4468725"><ele>1540.0</ele><time>2026-04-07T05:31:37.564Z</time></trkpt><trkpt lat="46.6524869" lon="12.4468119"><ele>1540.0</ele><time>2026-04-07T05:31:40.562Z</time></trkpt><trkpt lat="46.6525511" lon="12.4467362"><ele>1540.0000000000002</ele><time>2026-04-07T05:31:43.564Z</time></trkpt><trkpt lat="46.6526084" lon="12.4466532"><ele>1540.0</ele><time>2026-04-07T05:31:46.564Z</time></trkpt><trkpt lat="46.6526605" lon="12.44656"><ele>1540.0000000000002</ele><time>2026-04-07T05:31:49.564Z</time></trkpt><trkpt lat="46.6527035" lon="12.4464579"><ele>1540.0</ele><time>2026-04-07T05:31:52.564Z</time></trkpt><trkpt lat="46.6527444" lon="12.4463609"><ele>1540.0</ele><time>2026-04-07T05:31:55.564Z</time></trkpt><trkpt lat="46.6527902" lon="12.4462682"><ele>1540.0</ele><time>2026-04-07T05:31:58.564Z</time></trkpt><trkpt lat="46.6528379" lon="12.4461752"><ele>1540.0000000000002</ele><time>2026-04-07T05:32:01.563Z</time></trkpt><trkpt lat="46.6528934" lon="12.4460931"><ele>1540.0</ele><time>2026-04-07T05:32:04.563Z</time></trkpt><trkpt lat="46.6529502" lon="12.4460079"><ele>1544.1666666666667</ele><time>2026-04-07T05:32:07.563Z</time></trkpt><trkpt lat="46.6530043" lon="12.445923"><ele>1548.3333333333335</ele><time>2026-04-07T05:32:10.564Z</time></trkpt><trkpt lat="46.6530566" lon="12.4458343"><ele>1552.5</ele><time>2026-04-07T05:32:13.562Z</time></trkpt><trkpt lat="46.653112" lon="12.4457463"><ele>1556.6666666666665</ele><time>2026-04-07T05:32:16.564Z</time></trkpt><trkpt lat="46.6531644" lon="12.445658"><ele>1560.8333333333333</ele><time>2026-04-07T05:32:19.563Z</time></trkpt><trkpt lat="46.6532117" lon="12.4455674"><ele>1565.0</ele><time>2026-04-07T05:32:22.564Z</time></trkpt><trkpt lat="46.653248" lon="12.4454635"><ele>1562.6666666666665</ele><time>2026-04-07T05:32:25.563Z</time></trkpt><trkpt lat="46.6532804" lon="12.4453579"><ele>1560.3333333333333</ele><time>2026-04-07T05:32:28.564Z</time></trkpt><trkpt lat="46.653299" lon="12.4452477"><ele>1558.0</ele><time>2026-04-07T05:32:31.564Z</time></trkpt><trkpt lat="46.6533151" lon="12.4451347"><ele>1555.6666666666665</ele><time>2026-04-07T05:32:34.563Z</time></trkpt><trkpt lat="46.6533371" lon="12.4450216"><ele>1553.3333333333333</ele><time>2026-04-07T05:32:37.563Z</time></trkpt><trkpt lat="46.6533639" lon="12.4449148"><ele>1551.0</ele><time>2026-04-07T05:32:40.563Z</time></trkpt><trkpt lat="46.6533912" lon="12.4448114"><ele>1551.0000000000002</ele><time>2026-04-07T05:32:43.564Z</time></trkpt><trkpt lat="46.6534228" lon="12.4447288"><ele>1551.0</ele><time>2026-04-07T05:32:46.565Z</time></trkpt><trkpt lat="46.6534765" lon="12.4446408"><ele>1551.0</ele><time>2026-04-07T05:32:49.564Z</time></trkpt><trkpt lat="46.6535103" lon="12.4445392"><ele>1551.0</ele><time>2026-04-07T05:32:53.565Z</time></trkpt><trkpt lat="46.653543" lon="12.44446"><ele>1551.0</ele><time>2026-04-07T05:32:56.564Z</time></trkpt><trkpt lat="46.6535681" lon="12.4443649"><ele>1551.0000000000002</ele><time>2026-04-07T05:32:59.564Z</time></trkpt><trkpt lat="46.6535937" lon="12.4442518"><ele>1551.0</ele><time>2026-04-07T05:33:03.564Z</time></trkpt><trkpt lat="46.653577" lon="12.4441632"><ele>1550.5714285714287</ele><time>2026-04-07T05:33:06.564Z</time></trkpt><trkpt lat="46.6535598" lon="12.4440707"><ele>1550.142857142857</ele><time>2026-04-07T05:33:09.564Z</time></trkpt><trkpt lat="46.653533" lon="12.4439812"><ele>1549.7142857142858</ele><time>2026-04-07T05:33:12.564Z</time></trkpt><trkpt lat="46.6535017" lon="12.4438786"><ele>1549.2857142857142</ele><time>2026-04-07T05:33:15.565Z</time></trkpt><trkpt lat="46.6534818" lon="12.4437811"><ele>1548.857142857143</ele><time>2026-04-07T05:33:18.565Z</time></trkpt><trkpt lat="46.6534775" lon="12.443685"><ele>1548.4285714285716</ele><time>2026-04-07T05:33:21.565Z</time></trkpt><trkpt lat="46.6534772" lon="12.4435867"><ele>1548.0</ele><time>2026-04-07T05:33:24.565Z</time></trkpt><trkpt lat="46.65346" lon="12.4434838"><ele>1549.0</ele><time>2026-04-07T05:33:27.565Z</time></trkpt><trkpt lat="46.65344" lon="12.4433806"><ele>1550.0</ele><time>2026-04-07T05:33:30.565Z</time></trkpt><trkpt lat="46.6534096" lon="12.4432854"><ele>1551.0</ele><time>2026-04-07T05:33:33.565Z</time></trkpt><trkpt lat="46.653373" lon="12.4431907"><ele>1552.0</ele><time>2026-04-07T05:33:36.564Z</time></trkpt><trkpt lat="46.6533412" lon="12.4430947"><ele>1553.0</ele><time>2026-04-07T05:33:39.564Z</time></trkpt><trkpt lat="46.6533158" lon="12.4429586"><ele>1554.0</ele><time>2026-04-07T05:33:43.563Z</time></trkpt><trkpt lat="46.6533081" lon="12.4428591"><ele>1553.4285714285713</ele><time>2026-04-07T05:33:46.564Z</time></trkpt><trkpt lat="46.6532941" lon="12.4427564"><ele>1552.857142857143</ele><time>2026-04-07T05:33:49.565Z</time></trkpt><trkpt lat="46.6532772" lon="12.4426516"><ele>1552.2857142857142</ele><time>2026-04-07T05:33:52.565Z</time></trkpt><trkpt lat="46.6532667" lon="12.442549"><ele>1551.7142857142858</ele><time>2026-04-07T05:33:55.565Z</time></trkpt><trkpt lat="46.6532583" lon="12.4424399"><ele>1551.142857142857</ele><time>2026-04-07T05:33:58.565Z</time></trkpt><trkpt lat="46.6532598" lon="12.4423292"><ele>1550.5714285714284</ele><time>2026-04-07T05:34:01.565Z</time></trkpt><trkpt lat="46.6532524" lon="12.4422188"><ele>1550.0</ele><time>2026-04-07T05:34:04.565Z</time></trkpt><trkpt lat="46.6532668" lon="12.4421143"><ele>1549.9999999999998</ele><time>2026-04-07T05:34:07.564Z</time></trkpt><trkpt lat="46.6532926" lon="12.4420138"><ele>1550.0</ele><time>2026-04-07T05:34:10.564Z</time></trkpt><trkpt lat="46.6533337" lon="12.4419294"><ele>1550.0</ele><time>2026-04-07T05:34:13.565Z</time></trkpt><trkpt lat="46.653376" lon="12.4418426"><ele>1550.0</ele><time>2026-04-07T05:34:16.565Z</time></trkpt><trkpt lat="46.6534263" lon="12.4417761"><ele>1550.0</ele><time>2026-04-07T05:34:19.565Z</time></trkpt><trkpt lat="46.6534786" lon="12.4417087"><ele>1549.9999999999998</ele><time>2026-04-07T05:34:22.564Z</time></trkpt><trkpt lat="46.6535326" lon="12.4416409"><ele>1550.0</ele><time>2026-04-07T05:34:25.565Z</time></trkpt><trkpt lat="46.6535863" lon="12.4415672"><ele>1555.5714285714284</ele><time>2026-04-07T05:34:28.564Z</time></trkpt><trkpt lat="46.6536383" lon="12.4414919"><ele>1561.142857142857</ele><time>2026-04-07T05:34:31.564Z</time></trkpt><trkpt lat="46.6536876" lon="12.4414223"><ele>1566.7142857142858</ele><time>2026-04-07T05:34:34.564Z</time></trkpt><trkpt lat="46.6537349" lon="12.4413463"><ele>1572.2857142857142</ele><time>2026-04-07T05:34:37.564Z</time></trkpt><trkpt lat="46.653783" lon="12.4412667"><ele>1577.857142857143</ele><time>2026-04-07T05:34:40.564Z</time></trkpt><trkpt lat="46.6538261" lon="12.441181"><ele>1583.4285714285713</ele><time>2026-04-07T05:34:43.565Z</time></trkpt><trkpt lat="46.6538641" lon="12.4410955"><ele>1589.0</ele><time>2026-04-07T05:34:46.565Z</time></trkpt><trkpt lat="46.6538984" lon="12.4410091"><ele>1589.0</ele><time>2026-04-07T05:34:49.565Z</time></trkpt><trkpt lat="46.6539125" lon="12.4409134"><ele>1589.0</ele><time>2026-04-07T05:34:52.565Z</time></trkpt><trkpt lat="46.653909" lon="12.4408102"><ele>1589.0</ele><time>2026-04-07T05:34:55.565Z</time></trkpt><trkpt lat="46.6538936" lon="12.4407068"><ele>1589.0</ele><time>2026-04-07T05:34:58.565Z</time></trkpt><trkpt lat="46.6538706" lon="12.4405988"><ele>1589.0</ele><time>2026-04-07T05:35:01.565Z</time></trkpt><trkpt lat="46.6538429" lon="12.4405025"><ele>1589.0</ele><time>2026-04-07T05:35:04.564Z</time></trkpt><trkpt lat="46.6537952" lon="12.4404199"><ele>1589.0</ele><time>2026-04-07T05:35:07.565Z</time></trkpt><trkpt lat="46.6537298" lon="12.4403709"><ele>1587.6666666666665</ele><time>2026-04-07T05:35:10.564Z</time></trkpt><trkpt lat="46.6536605" lon="12.4403352"><ele>1586.3333333333333</ele><time>2026-04-07T05:35:13.565Z</time></trkpt><trkpt lat="46.6535919" lon="12.4403072"><ele>1585.0</ele><time>2026-04-07T05:35:16.565Z</time></trkpt><trkpt lat="46.6535187" lon="12.4402881"><ele>1583.6666666666665</ele><time>2026-04-07T05:35:19.565Z</time></trkpt><trkpt lat="46.6534429" lon="12.4402704"><ele>1582.3333333333333</ele><time>2026-04-07T05:35:22.565Z</time></trkpt><trkpt lat="46.6533664" lon="12.4402519"><ele>1581.0</ele><time>2026-04-07T05:35:25.565Z</time></trkpt><trkpt lat="46.6532901" lon="12.4402312"><ele>1581.0</ele><time>2026-04-07T05:35:28.564Z</time></trkpt><trkpt lat="46.6532141" lon="12.4402125"><ele>1581.0</ele><time>2026-04-07T05:35:31.565Z</time></trkpt><trkpt lat="46.6531367" lon="12.4401951"><ele>1581.0</ele><time>2026-04-07T05:35:34.565Z</time></trkpt><trkpt lat="46.6530623" lon="12.4401712"><ele>1581.0</ele><time>2026-04-07T05:35:37.565Z</time></trkpt><trkpt lat="46.6529877" lon="12.4401459"><ele>1581.0</ele><time>2026-04-07T05:35:40.565Z</time></trkpt><trkpt lat="46.6529132" lon="12.4401107"><ele>1581.0</ele><time>2026-04-07T05:35:43.564Z</time></trkpt><trkpt lat="46.6528408" lon="12.4400706"><ele>1580.8333333333333</ele><time>2026-04-07T05:35:46.565Z</time></trkpt><trkpt lat="46.6527713" lon="12.4400235"><ele>1580.6666666666665</ele><time>2026-04-07T05:35:49.564Z</time></trkpt><trkpt lat="46.6527051" lon="12.4399698"><ele>1580.5</ele><time>2026-04-07T05:35:52.564Z</time></trkpt><trkpt lat="46.6526456" lon="12.4399016"><ele>1580.3333333333333</ele><time>2026-04-07T05:35:55.564Z</time></trkpt><trkpt lat="46.6525964" lon="12.439821"><ele>1580.1666666666665</ele><time>2026-04-07T05:35:58.565Z</time></trkpt><trkpt lat="46.6525563" lon="12.4397275"><ele>1580.0</ele><time>2026-04-07T05:36:01.565Z</time></trkpt><trkpt lat="46.6525262" lon="12.439629"><ele>1579.9999999999998</ele><time>2026-04-07T05:36:04.565Z</time></trkpt><trkpt lat="46.6525088" lon="12.4395183"><ele>1580.0</ele><time>2026-04-07T05:36:07.564Z</time></trkpt><trkpt lat="46.6524908" lon="12.4394067"><ele>1580.0</ele><time>2026-04-07T05:36:10.564Z</time></trkpt><trkpt lat="46.6524689" lon="12.4392957"><ele>1580.0</ele><time>2026-04-07T05:36:13.563Z</time></trkpt><trkpt lat="46.6524468" lon="12.4391901"><ele>1579.9999999999998</ele><time>2026-04-07T05:36:16.565Z</time></trkpt><trkpt lat="46.6524206" lon="12.439093"><ele>1580.0</ele><time>2026-04-07T05:36:19.564Z</time></trkpt><trkpt lat="46.6523782" lon="12.4390035"><ele>1579.9999999999998</ele><time>2026-04-07T05:36:22.565Z</time></trkpt><trkpt lat="46.6523261" lon="12.4389371"><ele>1580.0</ele><time>2026-04-07T05:36:26.565Z</time></trkpt><trkpt lat="46.6522616" lon="12.4388527"><ele>1580.0</ele><time>2026-04-07T05:36:29.564Z</time></trkpt><trkpt lat="46.6521931" lon="12.4387682"><ele>1580.0</ele><time>2026-04-07T05:36:32.565Z</time></trkpt><trkpt lat="46.6521259" lon="12.4386852"><ele>1579.9999999999998</ele><time>2026-04-07T05:36:35.565Z</time></trkpt><trkpt lat="46.6520499" lon="12.4386004"><ele>1580.0</ele><time>2026-04-07T05:36:38.565Z</time></trkpt><trkpt lat="46.6519975" lon="12.4385429"><ele>1578.6666666666665</ele><time>2026-04-07T05:36:40.564Z</time></trkpt><trkpt lat="46.6519454" lon="12.4384852"><ele>1577.3333333333333</ele><time>2026-04-07T05:36:42.565Z</time></trkpt><trkpt lat="46.6518697" lon="12.4383831"><ele>1576.0</ele><time>2026-04-07T05:36:45.565Z</time></trkpt><trkpt lat="46.6518207" lon="12.4383078"><ele>1574.6666666666665</ele><time>2026-04-07T05:36:47.563Z</time></trkpt><trkpt lat="46.6517905" lon="12.4382141"><ele>1573.3333333333333</ele><time>2026-04-07T05:36:49.565Z</time></trkpt><trkpt lat="46.6517738" lon="12.4381157"><ele>1572.0</ele><time>2026-04-07T05:36:51.564Z</time></trkpt><trkpt lat="46.651782" lon="12.4380114"><ele>1571.4285714285716</ele><time>2026-04-07T05:36:53.565Z</time></trkpt><trkpt lat="46.6518002" lon="12.4379178"><ele>1570.857142857143</ele><time>2026-04-07T05:36:55.564Z</time></trkpt><trkpt lat="46.6518299" lon="12.4378299"><ele>1570.2857142857142</ele><time>2026-04-07T05:36:57.564Z</time></trkpt><trkpt lat="46.6518646" lon="12.4377412"><ele>1569.7142857142858</ele><time>2026-04-07T05:36:59.566Z</time></trkpt><trkpt lat="46.6518968" lon="12.4376532"><ele>1569.142857142857</ele><time>2026-04-07T05:37:01.566Z</time></trkpt><trkpt lat="46.6519291" lon="12.4375617"><ele>1568.5714285714287</ele><time>2026-04-07T05:37:03.566Z</time></trkpt><trkpt lat="46.6519613" lon="12.4374703"><ele>1568.0</ele><time>2026-04-07T05:37:05.566Z</time></trkpt><trkpt lat="46.6519919" lon="12.4373802"><ele>1573.857142857143</ele><time>2026-04-07T05:37:07.566Z</time></trkpt><trkpt lat="46.652023" lon="12.4372925"><ele>1579.7142857142858</ele><time>2026-04-07T05:37:09.566Z</time></trkpt><trkpt lat="46.6520517" lon="12.4372016"><ele>1585.5714285714284</ele><time>2026-04-07T05:37:11.566Z</time></trkpt><trkpt lat="46.652079" lon="12.4371069"><ele>1591.4285714285716</ele><time>2026-04-07T05:37:13.566Z</time></trkpt><trkpt lat="46.6521027" lon="12.4370085"><ele>1597.2857142857142</ele><time>2026-04-07T05:37:15.566Z</time></trkpt><trkpt lat="46.6521155" lon="12.4369096"><ele>1603.142857142857</ele><time>2026-04-07T05:37:17.564Z</time></trkpt><trkpt lat="46.6521298" lon="12.4368112"><ele>1609.0</ele><time>2026-04-07T05:37:19.566Z</time></trkpt><trkpt lat="46.6521382" lon="12.4367131"><ele>1610.0000000000002</ele><time>2026-04-07T05:37:21.566Z</time></trkpt><trkpt lat="46.6521424" lon="12.4366139"><ele>1611.0</ele><time>2026-04-07T05:37:23.564Z</time></trkpt><trkpt lat="46.6521505" lon="12.4365062"><ele>1612.0</ele><time>2026-04-07T05:37:25.566Z</time></trkpt><trkpt lat="46.6521476" lon="12.436412"><ele>1613.0</ele><time>2026-04-07T05:37:27.566Z</time></trkpt><trkpt lat="46.6521554" lon="12.4362771"><ele>1614.0000000000002</ele><time>2026-04-07T05:37:29.566Z</time></trkpt><trkpt lat="46.6521455" lon="12.4361496"><ele>1615.0</ele><time>2026-04-07T05:37:32.566Z</time></trkpt><trkpt lat="46.6521399" lon="12.4360578"><ele>1615.0</ele><time>2026-04-07T05:37:34.565Z</time></trkpt><trkpt lat="46.6521367" lon="12.4359585"><ele>1615.0</ele><time>2026-04-07T05:37:36.564Z</time></trkpt><trkpt lat="46.6521355" lon="12.4358571"><ele>1615.0</ele><time>2026-04-07T05:37:38.565Z</time></trkpt><trkpt lat="46.6521348" lon="12.4357563"><ele>1615.0</ele><time>2026-04-07T05:37:40.565Z</time></trkpt><trkpt lat="46.652137" lon="12.4356534"><ele>1615.0</ele><time>2026-04-07T05:37:42.565Z</time></trkpt><trkpt lat="46.652138" lon="12.435551"><ele>1615.0</ele><time>2026-04-07T05:37:44.566Z</time></trkpt><trkpt lat="46.6521385" lon="12.4354487"><ele>1615.0</ele><time>2026-04-07T05:37:46.566Z</time></trkpt><trkpt lat="46.6521353" lon="12.4353457"><ele>1614.7142857142856</ele><time>2026-04-07T05:37:48.566Z</time></trkpt><trkpt lat="46.6521353" lon="12.4352418"><ele>1614.4285714285716</ele><time>2026-04-07T05:37:50.565Z</time></trkpt><trkpt lat="46.6521277" lon="12.4351376"><ele>1614.142857142857</ele><time>2026-04-07T05:37:52.564Z</time></trkpt><trkpt lat="46.6521257" lon="12.4350345"><ele>1613.8571428571427</ele><time>2026-04-07T05:37:54.566Z</time></trkpt><trkpt lat="46.6521305" lon="12.4349344"><ele>1613.5714285714284</ele><time>2026-04-07T05:37:56.565Z</time></trkpt><trkpt lat="46.6521311" lon="12.4348343"><ele>1613.2857142857142</ele><time>2026-04-07T05:37:58.564Z</time></trkpt><trkpt lat="46.6521221" lon="12.4347372"><ele>1613.0</ele><time>2026-04-07T05:38:00.566Z</time></trkpt><trkpt lat="46.6520938" lon="12.4346079"><ele>1613.9999999999998</ele><time>2026-04-07T05:38:03.565Z</time></trkpt><trkpt lat="46.6520531" lon="12.4344883"><ele>1615.0</ele><time>2026-04-07T05:38:06.566Z</time></trkpt><trkpt lat="46.6520109" lon="12.4344195"><ele>1616.0</ele><time>2026-04-07T05:38:08.566Z</time></trkpt><trkpt lat="46.65196" lon="12.4343637"><ele>1617.0</ele><time>2026-04-07T05:38:10.566Z</time></trkpt><trkpt lat="46.6518785" lon="12.4343008"><ele>1617.9999999999998</ele><time>2026-04-07T05:38:13.564Z</time></trkpt><trkpt lat="46.6517977" lon="12.4342383"><ele>1619.0</ele><time>2026-04-07T05:38:16.565Z</time></trkpt><trkpt lat="46.6517201" lon="12.4341704"><ele>1614.4</ele><time>2026-04-07T05:38:19.566Z</time></trkpt><trkpt lat="46.6516502" lon="12.4340846"><ele>1609.8000000000002</ele><time>2026-04-07T05:38:22.566Z</time></trkpt><trkpt lat="46.6515909" lon="12.4339807"><ele>1605.1999999999998</ele><time>2026-04-07T05:38:25.566Z</time></trkpt><trkpt lat="46.6515516" lon="12.4338584"><ele>1600.6</ele><time>2026-04-07T05:38:28.566Z</time></trkpt><trkpt lat="46.6515351" lon="12.433723"><ele>1596.0</ele><time>2026-04-07T05:38:31.565Z</time></trkpt><trkpt lat="46.6515384" lon="12.4335884"><ele>1596.0</ele><time>2026-04-07T05:38:34.566Z</time></trkpt><trkpt lat="46.6515543" lon="12.4334986"><ele>1596.0</ele><time>2026-04-07T05:38:36.566Z</time></trkpt><trkpt lat="46.6515627" lon="12.4334056"><ele>1596.0</ele><time>2026-04-07T05:38:38.566Z</time></trkpt><trkpt lat="46.65157" lon="12.4333126"><ele>1596.0</ele><time>2026-04-07T05:38:40.566Z</time></trkpt><trkpt lat="46.6515678" lon="12.43322"><ele>1596.0</ele><time>2026-04-07T05:38:42.565Z</time></trkpt><trkpt lat="46.6515479" lon="12.4330874"><ele>1596.0</ele><time>2026-04-07T05:38:45.566Z</time></trkpt><trkpt lat="46.651527" lon="12.4329998"><ele>1596.0</ele><time>2026-04-07T05:38:47.566Z</time></trkpt><trkpt lat="46.6514948" lon="12.4328775"><ele>1596.0</ele><time>2026-04-07T05:38:50.565Z</time></trkpt><trkpt lat="46.6514778" lon="12.4327869"><ele>1596.0</ele><time>2026-04-07T05:38:52.566Z</time></trkpt><trkpt lat="46.6514693" lon="12.4326912"><ele>1596.0</ele><time>2026-04-07T05:38:54.566Z</time></trkpt><trkpt lat="46.6514651" lon="12.4325563"><ele>1596.0</ele><time>2026-04-07T05:38:57.565Z</time></trkpt><trkpt lat="46.6514698" lon="12.4324184"><ele>1596.0</ele><time>2026-04-07T05:39:00.565Z</time></trkpt><trkpt lat="46.6514794" lon="12.4323245"><ele>1596.0</ele><time>2026-04-07T05:39:02.565Z</time></trkpt><trkpt lat="46.6514904" lon="12.432234"><ele>1596.0</ele><time>2026-04-07T05:39:04.565Z</time></trkpt><trkpt lat="46.6515026" lon="12.4320992"><ele>1596.0</ele><time>2026-04-07T05:39:07.566Z</time></trkpt><trkpt lat="46.6515008" lon="12.4320072"><ele>1596.0</ele><time>2026-04-07T05:39:09.565Z</time></trkpt><trkpt lat="46.6514952" lon="12.4319154"><ele>1596.0</ele><time>2026-04-07T05:39:11.565Z</time></trkpt><trkpt lat="46.6514839" lon="12.4317823"><ele>1596.0</ele><time>2026-04-07T05:39:14.565Z</time></trkpt><trkpt lat="46.6514753" lon="12.4316526"><ele>1596.0</ele><time>2026-04-07T05:39:17.564Z</time></trkpt><trkpt lat="46.65148" lon="12.4315237"><ele>1596.0</ele><time>2026-04-07T05:39:20.566Z</time></trkpt><trkpt lat="46.6515005" lon="12.43139"><ele>1597.4</ele><time>2026-04-07T05:39:23.565Z</time></trkpt><trkpt lat="46.6515222" lon="12.43126"><ele>1598.8</ele><time>2026-04-07T05:39:26.564Z</time></trkpt><trkpt lat="46.651526" lon="12.4311256"><ele>1600.2</ele><time>2026-04-07T05:39:29.566Z</time></trkpt><trkpt lat="46.6515001" lon="12.4310034"><ele>1601.6000000000001</ele><time>2026-04-07T05:39:32.565Z</time></trkpt><trkpt lat="46.6514428" lon="12.4309038"><ele>1603.0</ele><time>2026-04-07T05:39:35.566Z</time></trkpt><trkpt lat="46.6513813" lon="12.4308064"><ele>1603.0</ele><time>2026-04-07T05:39:38.566Z</time></trkpt><trkpt lat="46.6513154" lon="12.4307126"><ele>1603.0</ele><time>2026-04-07T05:39:41.566Z</time></trkpt><trkpt lat="46.6512486" lon="12.4306164"><ele>1603.0</ele><time>2026-04-07T05:39:44.566Z</time></trkpt><trkpt lat="46.6511839" lon="12.4305253"><ele>1603.0</ele><time>2026-04-07T05:39:47.565Z</time></trkpt><trkpt lat="46.6511248" lon="12.4304254"><ele>1603.0</ele><time>2026-04-07T05:39:50.566Z</time></trkpt><trkpt lat="46.6510605" lon="12.430334"><ele>1603.1666666666667</ele><time>2026-04-07T05:39:53.565Z</time></trkpt><trkpt lat="46.6509916" lon="12.4302507"><ele>1603.3333333333335</ele><time>2026-04-07T05:39:56.566Z</time></trkpt><trkpt lat="46.6509334" lon="12.4301846"><ele>1603.5</ele><time>2026-04-07T05:39:59.566Z</time></trkpt><trkpt lat="46.6508712" lon="12.4301317"><ele>1603.6666666666665</ele><time>2026-04-07T05:40:02.566Z</time></trkpt><trkpt lat="46.6507987" lon="12.4300836"><ele>1603.8333333333333</ele><time>2026-04-07T05:40:05.566Z</time></trkpt><trkpt lat="46.6507259" lon="12.4300438"><ele>1604.0</ele><time>2026-04-07T05:40:08.564Z</time></trkpt><trkpt lat="46.6506503" lon="12.4300286"><ele>1603.9999999999998</ele><time>2026-04-07T05:40:11.566Z</time></trkpt><trkpt lat="46.65057" lon="12.4300223"><ele>1604.0</ele><time>2026-04-07T05:40:14.565Z</time></trkpt><trkpt lat="46.6504906" lon="12.430024"><ele>1604.0</ele><time>2026-04-07T05:40:17.566Z</time></trkpt><trkpt lat="46.6504131" lon="12.430052"><ele>1604.0</ele><time>2026-04-07T05:40:20.566Z</time></trkpt><trkpt lat="46.6503349" lon="12.430079"><ele>1603.9999999999998</ele><time>2026-04-07T05:40:23.565Z</time></trkpt><trkpt lat="46.650247" lon="12.4301123"><ele>1604.0</ele><time>2026-04-07T05:40:26.565Z</time></trkpt><trkpt lat="46.6501848" lon="12.430131"><ele>1603.0</ele><time>2026-04-07T05:40:28.565Z</time></trkpt><trkpt lat="46.6501207" lon="12.4301301"><ele>1602.0</ele><time>2026-04-07T05:40:30.564Z</time></trkpt><trkpt lat="46.6500349" lon="12.4300814"><ele>1601.0</ele><time>2026-04-07T05:40:33.566Z</time></trkpt><trkpt lat="46.6499741" lon="12.4300399"><ele>1600.0</ele><time>2026-04-07T05:40:35.565Z</time></trkpt><trkpt lat="46.6499095" lon="12.4299918"><ele>1599.0</ele><time>2026-04-07T05:40:37.565Z</time></trkpt><trkpt lat="46.6498478" lon="12.4299236"><ele>1598.0</ele><time>2026-04-07T05:40:39.565Z</time></trkpt><trkpt lat="46.6497973" lon="12.4298412"><ele>1597.0</ele><time>2026-04-07T05:40:41.566Z</time></trkpt><trkpt lat="46.6497624" lon="12.4297421"><ele>1598.3333333333335</ele><time>2026-04-07T05:40:43.566Z</time></trkpt><trkpt lat="46.6497324" lon="12.4296402"><ele>1599.6666666666667</ele><time>2026-04-07T05:40:45.565Z</time></trkpt><trkpt lat="46.6497082" lon="12.4295377"><ele>1601.0</ele><time>2026-04-07T05:40:47.566Z</time></trkpt><trkpt lat="46.6496975" lon="12.4294339"><ele>1602.3333333333335</ele><time>2026-04-07T05:40:49.565Z</time></trkpt><trkpt lat="46.6496918" lon="12.4293421"><ele>1603.6666666666667</ele><time>2026-04-07T05:40:51.566Z</time></trkpt><trkpt lat="46.6496974" lon="12.42921"><ele>1605.0</ele><time>2026-04-07T05:40:54.565Z</time></trkpt><trkpt lat="46.6496978" lon="12.429074"><ele>1605.0</ele><time>2026-04-07T05:40:57.565Z</time></trkpt><trkpt lat="46.6496902" lon="12.4289812"><ele>1605.0</ele><time>2026-04-07T05:40:59.565Z</time></trkpt><trkpt lat="46.6496904" lon="12.4288872"><ele>1605.0</ele><time>2026-04-07T05:41:01.566Z</time></trkpt><trkpt lat="46.6496921" lon="12.4287945"><ele>1605.0</ele><time>2026-04-07T05:41:03.566Z</time></trkpt><trkpt lat="46.6496948" lon="12.4287025"><ele>1605.0</ele><time>2026-04-07T05:41:05.567Z</time></trkpt><trkpt lat="46.6497005" lon="12.4286097"><ele>1605.0</ele><time>2026-04-07T05:41:07.567Z</time></trkpt><trkpt lat="46.6497172" lon="12.4284826"><ele>1605.0</ele><time>2026-04-07T05:41:10.566Z</time></trkpt><trkpt lat="46.6497457" lon="12.4283692"><ele>1605.0</ele><time>2026-04-07T05:41:13.567Z</time></trkpt><trkpt lat="46.6497831" lon="12.4282675"><ele>1605.0</ele><time>2026-04-07T05:41:16.565Z</time></trkpt><trkpt lat="46.6498297" lon="12.4281729"><ele>1605.0</ele><time>2026-04-07T05:41:19.565Z</time></trkpt><trkpt lat="46.6498874" lon="12.4280884"><ele>1605.0</ele><time>2026-04-07T05:41:22.567Z</time></trkpt><trkpt lat="46.6499519" lon="12.4279974"><ele>1605.0</ele><time>2026-04-07T05:41:25.566Z</time></trkpt><trkpt lat="46.6500212" lon="12.4279169"><ele>1605.0</ele><time>2026-04-07T05:41:28.567Z</time></trkpt><trkpt lat="46.65009" lon="12.4278397"><ele>1604.6666666666667</ele><time>2026-04-07T05:41:31.566Z</time></trkpt><trkpt lat="46.6501565" lon="12.4277596"><ele>1604.3333333333335</ele><time>2026-04-07T05:41:34.566Z</time></trkpt><trkpt lat="46.6502235" lon="12.4276837"><ele>1604.0</ele><time>2026-04-07T05:41:37.566Z</time></trkpt><trkpt lat="46.6502888" lon="12.4276082"><ele>1603.6666666666667</ele><time>2026-04-07T05:41:40.567Z</time></trkpt><trkpt lat="46.6503538" lon="12.427538"><ele>1603.3333333333335</ele><time>2026-04-07T05:41:43.565Z</time></trkpt><trkpt lat="46.6504187" lon="12.4274617"><ele>1603.0</ele><time>2026-04-07T05:41:46.566Z</time></trkpt><trkpt lat="46.6504865" lon="12.4273912"><ele>1603.6666666666667</ele><time>2026-04-07T05:41:49.567Z</time></trkpt><trkpt lat="46.6505473" lon="12.4273244"><ele>1604.3333333333335</ele><time>2026-04-07T05:41:52.567Z</time></trkpt><trkpt lat="46.6506083" lon="12.4272536"><ele>1605.0</ele><time>2026-04-07T05:41:55.567Z</time></trkpt><trkpt lat="46.6506686" lon="12.4271847"><ele>1605.6666666666665</ele><time>2026-04-07T05:41:58.567Z</time></trkpt><trkpt lat="46.6507328" lon="12.427116"><ele>1606.3333333333333</ele><time>2026-04-07T05:42:01.566Z</time></trkpt><trkpt lat="46.6507957" lon="12.4270436"><ele>1607.0</ele><time>2026-04-07T05:42:04.565Z</time></trkpt><trkpt lat="46.6508595" lon="12.4269706"><ele>1606.9999999999998</ele><time>2026-04-07T05:42:07.565Z</time></trkpt><trkpt lat="46.6509251" lon="12.4269006"><ele>1607.0</ele><time>2026-04-07T05:42:10.567Z</time></trkpt><trkpt lat="46.6509883" lon="12.4268274"><ele>1607.0</ele><time>2026-04-07T05:42:13.567Z</time></trkpt><trkpt lat="46.6510519" lon="12.4267517"><ele>1607.0</ele><time>2026-04-07T05:42:16.565Z</time></trkpt><trkpt lat="46.6511125" lon="12.4266803"><ele>1606.9999999999998</ele><time>2026-04-07T05:42:19.566Z</time></trkpt><trkpt lat="46.6511754" lon="12.4266079"><ele>1607.0</ele><time>2026-04-07T05:42:22.565Z</time></trkpt><trkpt lat="46.6512332" lon="12.426543"><ele>1607.9999999999998</ele><time>2026-04-07T05:42:25.565Z</time></trkpt><trkpt lat="46.6513026" lon="12.4264889"><ele>1609.0</ele><time>2026-04-07T05:42:28.567Z</time></trkpt><trkpt lat="46.6513579" lon="12.4264186"><ele>1610.0</ele><time>2026-04-07T05:42:31.567Z</time></trkpt><trkpt lat="46.6514198" lon="12.4263451"><ele>1611.0</ele><time>2026-04-07T05:42:34.566Z</time></trkpt><trkpt lat="46.6514742" lon="12.4262671"><ele>1611.9999999999998</ele><time>2026-04-07T05:42:37.566Z</time></trkpt><trkpt lat="46.6515198" lon="12.426175"><ele>1613.0</ele><time>2026-04-07T05:42:40.567Z</time></trkpt><trkpt lat="46.6515612" lon="12.426076"><ele>1612.9999999999998</ele><time>2026-04-07T05:42:43.566Z</time></trkpt><trkpt lat="46.6515914" lon="12.4259679"><ele>1613.0</ele><time>2026-04-07T05:42:46.566Z</time></trkpt><trkpt lat="46.6516229" lon="12.4258598"><ele>1613.0</ele><time>2026-04-07T05:42:49.567Z</time></trkpt><trkpt lat="46.6516524" lon="12.4257522"><ele>1613.0</ele><time>2026-04-07T05:42:52.566Z</time></trkpt><trkpt lat="46.6516819" lon="12.4256453"><ele>1612.9999999999998</ele><time>2026-04-07T05:42:55.566Z</time></trkpt><trkpt lat="46.6517102" lon="12.4255416"><ele>1613.0</ele><time>2026-04-07T05:42:58.566Z</time></trkpt><trkpt lat="46.6517396" lon="12.4254374"><ele>1613.4999999999998</ele><time>2026-04-07T05:43:01.567Z</time></trkpt><trkpt lat="46.6517694" lon="12.4253351"><ele>1614.0</ele><time>2026-04-07T05:43:04.567Z</time></trkpt><trkpt lat="46.6518084" lon="12.4252315"><ele>1614.5</ele><time>2026-04-07T05:43:07.567Z</time></trkpt><trkpt lat="46.6518476" lon="12.4251266"><ele>1615.0</ele><time>2026-04-07T05:43:10.567Z</time></trkpt><trkpt lat="46.6518876" lon="12.4250268"><ele>1615.4999999999998</ele><time>2026-04-07T05:43:13.567Z</time></trkpt><trkpt lat="46.6519364" lon="12.4249351"><ele>1616.0</ele><time>2026-04-07T05:43:16.567Z</time></trkpt><trkpt lat="46.6519875" lon="12.4248528"><ele>1616.3333333333333</ele><time>2026-04-07T05:43:19.567Z</time></trkpt><trkpt lat="46.6520444" lon="12.4247598"><ele>1616.6666666666665</ele><time>2026-04-07T05:43:22.566Z</time></trkpt><trkpt lat="46.6521104" lon="12.4246883"><ele>1617.0</ele><time>2026-04-07T05:43:25.567Z</time></trkpt><trkpt lat="46.6521565" lon="12.4246086"><ele>1617.3333333333335</ele><time>2026-04-07T05:43:28.567Z</time></trkpt><trkpt lat="46.6522094" lon="12.4245313"><ele>1617.6666666666667</ele><time>2026-04-07T05:43:31.567Z</time></trkpt><trkpt lat="46.6522678" lon="12.4244571"><ele>1618.0</ele><time>2026-04-07T05:43:34.567Z</time></trkpt><trkpt lat="46.6523333" lon="12.424381"><ele>1618.0000000000002</ele><time>2026-04-07T05:43:37.567Z</time></trkpt><trkpt lat="46.6524002" lon="12.4243117"><ele>1618.0</ele><time>2026-04-07T05:43:40.567Z</time></trkpt><trkpt lat="46.652465" lon="12.4242512"><ele>1618.0</ele><time>2026-04-07T05:43:43.567Z</time></trkpt><trkpt lat="46.6525308" lon="12.4241936"><ele>1618.0</ele><time>2026-04-07T05:43:46.566Z</time></trkpt><trkpt lat="46.6525998" lon="12.4241367"><ele>1618.0000000000002</ele><time>2026-04-07T05:43:49.567Z</time></trkpt><trkpt lat="46.6526666" lon="12.424072"><ele>1618.0</ele><time>2026-04-07T05:43:52.566Z</time></trkpt><trkpt lat="46.652739" lon="12.4240165"><ele>1618.3333333333335</ele><time>2026-04-07T05:43:55.566Z</time></trkpt><trkpt lat="46.6528086" lon="12.4239551"><ele>1618.6666666666667</ele><time>2026-04-07T05:43:58.566Z</time></trkpt><trkpt lat="46.6528771" lon="12.4238977"><ele>1619.0</ele><time>2026-04-07T05:44:01.567Z</time></trkpt><trkpt lat="46.6529466" lon="12.4238372"><ele>1619.3333333333335</ele><time>2026-04-07T05:44:04.566Z</time></trkpt><trkpt lat="46.653019" lon="12.4237765"><ele>1619.6666666666667</ele><time>2026-04-07T05:44:07.566Z</time></trkpt><trkpt lat="46.6530913" lon="12.4237197"><ele>1620.0</ele><time>2026-04-07T05:44:10.567Z</time></trkpt><trkpt lat="46.6531624" lon="12.4236586"><ele>1621.0</ele><time>2026-04-07T05:44:13.567Z</time></trkpt><trkpt lat="46.6532337" lon="12.4235994"><ele>1622.0</ele><time>2026-04-07T05:44:16.567Z</time></trkpt><trkpt lat="46.6533055" lon="12.423535"><ele>1623.0</ele><time>2026-04-07T05:44:19.566Z</time></trkpt><trkpt lat="46.6533743" lon="12.4234603"><ele>1624.0</ele><time>2026-04-07T05:44:22.567Z</time></trkpt><trkpt lat="46.6534441" lon="12.4233846"><ele>1625.0</ele><time>2026-04-07T05:44:25.566Z</time></trkpt><trkpt lat="46.6535116" lon="12.4233068"><ele>1626.0</ele><time>2026-04-07T05:44:28.567Z</time></trkpt><trkpt lat="46.6535741" lon="12.4232256"><ele>1626.3333333333333</ele><time>2026-04-07T05:44:31.567Z</time></trkpt><trkpt lat="46.653635" lon="12.4231375"><ele>1626.6666666666665</ele><time>2026-04-07T05:44:34.567Z</time></trkpt><trkpt lat="46.6536967" lon="12.4230507"><ele>1627.0</ele><time>2026-04-07T05:44:37.567Z</time></trkpt><trkpt lat="46.6537604" lon="12.4229628"><ele>1627.3333333333333</ele><time>2026-04-07T05:44:40.565Z</time></trkpt><trkpt lat="46.6538221" lon="12.4228756"><ele>1627.6666666666665</ele><time>2026-04-07T05:44:43.567Z</time></trkpt><trkpt lat="46.6538864" lon="12.4227907"><ele>1628.0</ele><time>2026-04-07T05:44:46.566Z</time></trkpt><trkpt lat="46.6539487" lon="12.4227046"><ele>1627.9999999999998</ele><time>2026-04-07T05:44:49.566Z</time></trkpt><trkpt lat="46.6540114" lon="12.4226184"><ele>1628.0</ele><time>2026-04-07T05:44:52.566Z</time></trkpt><trkpt lat="46.6540772" lon="12.4225317"><ele>1628.0</ele><time>2026-04-07T05:44:55.566Z</time></trkpt><trkpt lat="46.6541467" lon="12.4224496"><ele>1628.0</ele><time>2026-04-07T05:44:58.566Z</time></trkpt><trkpt lat="46.6542158" lon="12.4223684"><ele>1627.9999999999998</ele><time>2026-04-07T05:45:01.567Z</time></trkpt><trkpt lat="46.6542868" lon="12.4222931"><ele>1628.0</ele><time>2026-04-07T05:45:04.567Z</time></trkpt><trkpt lat="46.6543597" lon="12.4222201"><ele>1627.9999999999998</ele><time>2026-04-07T05:45:07.567Z</time></trkpt><trkpt lat="46.6544318" lon="12.4221494"><ele>1628.0</ele><time>2026-04-07T05:45:10.568Z</time></trkpt><trkpt lat="46.6544967" lon="12.4220764"><ele>1628.0</ele><time>2026-04-07T05:45:13.567Z</time></trkpt><trkpt lat="46.6545684" lon="12.4220088"><ele>1628.0</ele><time>2026-04-07T05:45:16.568Z</time></trkpt><trkpt lat="46.6546362" lon="12.4219281"><ele>1627.9999999999998</ele><time>2026-04-07T05:45:19.568Z</time></trkpt><trkpt lat="46.6547084" lon="12.421858"><ele>1628.0</ele><time>2026-04-07T05:45:22.567Z</time></trkpt><trkpt lat="46.6547745" lon="12.4217793"><ele>1629.3333333333333</ele><time>2026-04-07T05:45:25.567Z</time></trkpt><trkpt lat="46.6548412" lon="12.4217054"><ele>1630.6666666666665</ele><time>2026-04-07T05:45:28.568Z</time></trkpt><trkpt lat="46.6549085" lon="12.4216288"><ele>1632.0</ele><time>2026-04-07T05:45:31.568Z</time></trkpt><trkpt lat="46.6549745" lon="12.4215454"><ele>1633.3333333333335</ele><time>2026-04-07T05:45:34.568Z</time></trkpt><trkpt lat="46.6550381" lon="12.4214655"><ele>1634.6666666666667</ele><time>2026-04-07T05:45:37.568Z</time></trkpt><trkpt lat="46.6551052" lon="12.4213929"><ele>1636.0</ele><time>2026-04-07T05:45:40.568Z</time></trkpt><trkpt lat="46.655174" lon="12.4213135"><ele>1636.0000000000002</ele><time>2026-04-07T05:45:43.567Z</time></trkpt><trkpt lat="46.6552462" lon="12.4212294"><ele>1636.0</ele><time>2026-04-07T05:45:46.568Z</time></trkpt><trkpt lat="46.655297" lon="12.4211709"><ele>1636.0</ele><time>2026-04-07T05:45:48.568Z</time></trkpt><trkpt lat="46.6553476" lon="12.4211106"><ele>1636.0</ele><time>2026-04-07T05:45:50.567Z</time></trkpt><trkpt lat="46.6554231" lon="12.4210196"><ele>1636.0000000000002</ele><time>2026-04-07T05:45:53.568Z</time></trkpt><trkpt lat="46.6554713" lon="12.4209521"><ele>1636.0</ele><time>2026-04-07T05:45:55.568Z</time></trkpt><trkpt lat="46.6555195" lon="12.4208878"><ele>1635.857142857143</ele><time>2026-04-07T05:45:57.567Z</time></trkpt><trkpt lat="46.6555679" lon="12.4208199"><ele>1635.7142857142858</ele><time>2026-04-07T05:45:59.567Z</time></trkpt><trkpt lat="46.6556157" lon="12.4207576"><ele>1635.5714285714287</ele><time>2026-04-07T05:46:01.568Z</time></trkpt><trkpt lat="46.6556601" lon="12.4206884"><ele>1635.4285714285716</ele><time>2026-04-07T05:46:03.567Z</time></trkpt><trkpt lat="46.6557038" lon="12.4206162"><ele>1635.2857142857142</ele><time>2026-04-07T05:46:05.568Z</time></trkpt><trkpt lat="46.6557765" lon="12.4205128"><ele>1635.1428571428573</ele><time>2026-04-07T05:46:08.568Z</time></trkpt><trkpt lat="46.6558215" lon="12.420435"><ele>1635.0</ele><time>2026-04-07T05:46:10.568Z</time></trkpt><trkpt lat="46.6558732" lon="12.4203613"><ele>1635.0</ele><time>2026-04-07T05:46:12.567Z</time></trkpt><trkpt lat="46.6559296" lon="12.4202793"><ele>1635.0</ele><time>2026-04-07T05:46:14.568Z</time></trkpt><trkpt lat="46.6559789" lon="12.4201805"><ele>1635.0</ele><time>2026-04-07T05:46:16.566Z</time></trkpt><trkpt lat="46.6560177" lon="12.4200638"><ele>1635.0</ele><time>2026-04-07T05:46:18.568Z</time></trkpt><trkpt lat="46.6560673" lon="12.4199577"><ele>1635.0</ele><time>2026-04-07T05:46:20.568Z</time></trkpt><trkpt lat="46.6561157" lon="12.4198434"><ele>1635.0</ele><time>2026-04-07T05:46:22.568Z</time></trkpt><trkpt lat="46.6561713" lon="12.4197355"><ele>1636.2</ele><time>2026-04-07T05:46:24.567Z</time></trkpt><trkpt lat="46.6562264" lon="12.4196295"><ele>1637.4</ele><time>2026-04-07T05:46:26.567Z</time></trkpt><trkpt lat="46.6562809" lon="12.4195292"><ele>1638.6</ele><time>2026-04-07T05:46:28.568Z</time></trkpt><trkpt lat="46.6563426" lon="12.4194262"><ele>1639.8</ele><time>2026-04-07T05:46:30.568Z</time></trkpt><trkpt lat="46.6564046" lon="12.4193165"><ele>1641.0</ele><time>2026-04-07T05:46:32.567Z</time></trkpt><trkpt lat="46.6564682" lon="12.4192068"><ele>1641.0</ele><time>2026-04-07T05:46:34.568Z</time></trkpt><trkpt lat="46.6565309" lon="12.4190994"><ele>1641.0</ele><time>2026-04-07T05:46:36.567Z</time></trkpt><trkpt lat="46.656592" lon="12.4189864"><ele>1641.0</ele><time>2026-04-07T05:46:38.568Z</time></trkpt><trkpt lat="46.656653" lon="12.4188709"><ele>1641.0</ele><time>2026-04-07T05:46:40.567Z</time></trkpt><trkpt lat="46.6567087" lon="12.4187533"><ele>1641.0</ele><time>2026-04-07T05:46:42.568Z</time></trkpt><trkpt lat="46.656765" lon="12.4186329"><ele>1639.8</ele><time>2026-04-07T05:46:44.568Z</time></trkpt><trkpt lat="46.656824" lon="12.4185216"><ele>1638.6</ele><time>2026-04-07T05:46:46.567Z</time></trkpt><trkpt lat="46.6568872" lon="12.4184122"><ele>1637.4</ele><time>2026-04-07T05:46:48.567Z</time></trkpt><trkpt lat="46.65694" lon="12.4183111"><ele>1636.2</ele><time>2026-04-07T05:46:50.567Z</time></trkpt><trkpt lat="46.6570008" lon="12.4182059"><ele>1635.0</ele><time>2026-04-07T05:46:52.567Z</time></trkpt><trkpt lat="46.6570636" lon="12.4181027"><ele>1635.0</ele><time>2026-04-07T05:46:54.568Z</time></trkpt><trkpt lat="46.6571306" lon="12.4179869"><ele>1635.0</ele><time>2026-04-07T05:46:56.567Z</time></trkpt><trkpt lat="46.6571839" lon="12.4178708"><ele>1635.0</ele><time>2026-04-07T05:46:58.567Z</time></trkpt><trkpt lat="46.6572416" lon="12.4177539"><ele>1635.0</ele><time>2026-04-07T05:47:00.567Z</time></trkpt><trkpt lat="46.6572931" lon="12.4176299"><ele>1635.0</ele><time>2026-04-07T05:47:02.568Z</time></trkpt><trkpt lat="46.6573425" lon="12.4175004"><ele>1635.0</ele><time>2026-04-07T05:47:04.568Z</time></trkpt><trkpt lat="46.6573884" lon="12.4173686"><ele>1635.0</ele><time>2026-04-07T05:47:06.568Z</time></trkpt><trkpt lat="46.6574347" lon="12.4172373"><ele>1635.0</ele><time>2026-04-07T05:47:08.568Z</time></trkpt><trkpt lat="46.657478" lon="12.4170933"><ele>1635.0</ele><time>2026-04-07T05:47:10.568Z</time></trkpt><trkpt lat="46.6575246" lon="12.416945"><ele>1635.0</ele><time>2026-04-07T05:47:12.568Z</time></trkpt><trkpt lat="46.6575658" lon="12.4167944"><ele>1634.8</ele><time>2026-04-07T05:47:14.566Z</time></trkpt><trkpt lat="46.65762" lon="12.4166486"><ele>1634.6</ele><time>2026-04-07T05:47:16.567Z</time></trkpt><trkpt lat="46.6576582" lon="12.4164966"><ele>1634.4</ele><time>2026-04-07T05:47:18.568Z</time></trkpt><trkpt lat="46.6576904" lon="12.4163528"><ele>1634.2</ele><time>2026-04-07T05:47:20.567Z</time></trkpt><trkpt lat="46.6577266" lon="12.4162124"><ele>1634.0</ele><time>2026-04-07T05:47:22.568Z</time></trkpt><trkpt lat="46.6577604" lon="12.4160733"><ele>1631.25</ele><time>2026-04-07T05:47:24.568Z</time></trkpt><trkpt lat="46.6577915" lon="12.4159205"><ele>1628.5</ele><time>2026-04-07T05:47:26.566Z</time></trkpt><trkpt lat="46.6578255" lon="12.4157633"><ele>1625.75</ele><time>2026-04-07T05:47:28.568Z</time></trkpt><trkpt lat="46.6578501" lon="12.4155927"><ele>1623.0</ele><time>2026-04-07T05:47:30.566Z</time></trkpt><trkpt lat="46.6578746" lon="12.4154175"><ele>1622.1666666666667</ele><time>2026-04-07T05:47:32.568Z</time></trkpt><trkpt lat="46.6578985" lon="12.4152408"><ele>1621.3333333333335</ele><time>2026-04-07T05:47:34.567Z</time></trkpt><trkpt lat="46.6579239" lon="12.4150686"><ele>1620.5</ele><time>2026-04-07T05:47:36.568Z</time></trkpt><trkpt lat="46.6579401" lon="12.4149778"><ele>1619.6666666666667</ele><time>2026-04-07T05:47:37.567Z</time></trkpt><trkpt lat="46.6579592" lon="12.414886"><ele>1618.8333333333335</ele><time>2026-04-07T05:47:38.568Z</time></trkpt><trkpt lat="46.657979" lon="12.4147893"><ele>1618.0</ele><time>2026-04-07T05:47:39.568Z</time></trkpt><trkpt lat="46.6580049" lon="12.4146939"><ele>1617.8333333333335</ele><time>2026-04-07T05:47:40.568Z</time></trkpt><trkpt lat="46.6580336" lon="12.4145956"><ele>1617.6666666666667</ele><time>2026-04-07T05:47:41.567Z</time></trkpt><trkpt lat="46.6580652" lon="12.4144966"><ele>1617.5</ele><time>2026-04-07T05:47:42.567Z</time></trkpt><trkpt lat="46.6580982" lon="12.4143936"><ele>1617.3333333333335</ele><time>2026-04-07T05:47:43.568Z</time></trkpt><trkpt lat="46.6581318" lon="12.4142905"><ele>1617.1666666666667</ele><time>2026-04-07T05:47:44.567Z</time></trkpt><trkpt lat="46.658167" lon="12.414186"><ele>1617.0</ele><time>2026-04-07T05:47:45.567Z</time></trkpt><trkpt lat="46.6582026" lon="12.4140807"><ele>1617.0</ele><time>2026-04-07T05:47:46.567Z</time></trkpt><trkpt lat="46.6582376" lon="12.4139704"><ele>1617.0</ele><time>2026-04-07T05:47:47.567Z</time></trkpt><trkpt lat="46.6582733" lon="12.413858"><ele>1617.0</ele><time>2026-04-07T05:47:48.567Z</time></trkpt><trkpt lat="46.6583098" lon="12.4137442"><ele>1617.0</ele><time>2026-04-07T05:47:49.566Z</time></trkpt><trkpt lat="46.6583463" lon="12.4136308"><ele>1617.0</ele><time>2026-04-07T05:47:50.568Z</time></trkpt><trkpt lat="46.6583845" lon="12.4135164"><ele>1617.0</ele><time>2026-04-07T05:47:51.567Z</time></trkpt><trkpt lat="46.6584229" lon="12.4133971"><ele>1617.1999999999998</ele><time>2026-04-07T05:47:52.567Z</time></trkpt><trkpt lat="46.6584607" lon="12.4132816"><ele>1617.4</ele><time>2026-04-07T05:47:53.567Z</time></trkpt><trkpt lat="46.6584977" lon="12.413163"><ele>1617.6</ele><time>2026-04-07T05:47:54.567Z</time></trkpt><trkpt lat="46.6585705" lon="12.4129294"><ele>1617.8000000000002</ele><time>2026-04-07T05:47:56.567Z</time></trkpt><trkpt lat="46.6586062" lon="12.4128094"><ele>1618.0</ele><time>2026-04-07T05:47:57.568Z</time></trkpt><trkpt lat="46.6586441" lon="12.4126915"><ele>1616.2</ele><time>2026-04-07T05:47:58.568Z</time></trkpt><trkpt lat="46.6586798" lon="12.4125694"><ele>1614.4</ele><time>2026-04-07T05:47:59.568Z</time></trkpt><trkpt lat="46.6587121" lon="12.4124471"><ele>1612.6000000000001</ele><time>2026-04-07T05:48:00.568Z</time></trkpt><trkpt lat="46.6587369" lon="12.4123236"><ele>1610.8000000000002</ele><time>2026-04-07T05:48:01.567Z</time></trkpt><trkpt lat="46.6587517" lon="12.412192"><ele>1609.0</ele><time>2026-04-07T05:48:02.567Z</time></trkpt><trkpt lat="46.6587627" lon="12.412053"><ele>1609.0</ele><time>2026-04-07T05:48:03.568Z</time></trkpt><trkpt lat="46.6587792" lon="12.41192"><ele>1609.0</ele><time>2026-04-07T05:48:04.568Z</time></trkpt><trkpt lat="46.6588076" lon="12.4117904"><ele>1609.0</ele><time>2026-04-07T05:48:05.568Z</time></trkpt><trkpt lat="46.6588471" lon="12.4116633"><ele>1609.0</ele><time>2026-04-07T05:48:06.568Z</time></trkpt><trkpt lat="46.6588977" lon="12.4115493"><ele>1609.0</ele><time>2026-04-07T05:48:07.568Z</time></trkpt><trkpt lat="46.6589575" lon="12.4114426"><ele>1609.0</ele><time>2026-04-07T05:48:08.568Z</time></trkpt><trkpt lat="46.659013" lon="12.411337"><ele>1609.0</ele><time>2026-04-07T05:48:09.567Z</time></trkpt><trkpt lat="46.6590627" lon="12.4112234"><ele>1609.0</ele><time>2026-04-07T05:48:10.567Z</time></trkpt><trkpt lat="46.6591024" lon="12.4111055"><ele>1609.0</ele><time>2026-04-07T05:48:11.568Z</time></trkpt><trkpt lat="46.6591313" lon="12.4109797"><ele>1609.0</ele><time>2026-04-07T05:48:12.567Z</time></trkpt><trkpt lat="46.6591509" lon="12.4108511"><ele>1609.6</ele><time>2026-04-07T05:48:13.568Z</time></trkpt><trkpt lat="46.6591696" lon="12.4107177"><ele>1610.2</ele><time>2026-04-07T05:48:14.568Z</time></trkpt><trkpt lat="46.6591966" lon="12.4105882"><ele>1610.8</ele><time>2026-04-07T05:48:15.567Z</time></trkpt><trkpt lat="46.6592307" lon="12.4104609"><ele>1611.3999999999999</ele><time>2026-04-07T05:48:16.568Z</time></trkpt><trkpt lat="46.6592699" lon="12.4103385"><ele>1612.0</ele><time>2026-04-07T05:48:17.567Z</time></trkpt><trkpt lat="46.659314" lon="12.4102193"><ele>1612.1999999999998</ele><time>2026-04-07T05:48:18.568Z</time></trkpt><trkpt lat="46.6593572" lon="12.410099"><ele>1612.4</ele><time>2026-04-07T05:48:19.567Z</time></trkpt><trkpt lat="46.6593884" lon="12.4099727"><ele>1612.6</ele><time>2026-04-07T05:48:20.567Z</time></trkpt><trkpt lat="46.6594126" lon="12.4098418"><ele>1612.8000000000002</ele><time>2026-04-07T05:48:21.568Z</time></trkpt><trkpt lat="46.6594279" lon="12.4097073"><ele>1613.0</ele><time>2026-04-07T05:48:22.566Z</time></trkpt><trkpt lat="46.65944" lon="12.4095703"><ele>1612.6000000000001</ele><time>2026-04-07T05:48:23.568Z</time></trkpt><trkpt lat="46.6594487" lon="12.4094345"><ele>1612.2</ele><time>2026-04-07T05:48:24.567Z</time></trkpt><trkpt lat="46.6594556" lon="12.4092973"><ele>1611.8</ele><time>2026-04-07T05:48:25.568Z</time></trkpt><trkpt lat="46.6594637" lon="12.4091575"><ele>1611.4</ele><time>2026-04-07T05:48:26.567Z</time></trkpt><trkpt lat="46.659473" lon="12.4090219"><ele>1611.0</ele><time>2026-04-07T05:48:27.568Z</time></trkpt><trkpt lat="46.6594829" lon="12.4088826"><ele>1608.4</ele><time>2026-04-07T05:48:28.568Z</time></trkpt><trkpt lat="46.6594934" lon="12.4087442"><ele>1605.8</ele><time>2026-04-07T05:48:29.568Z</time></trkpt><trkpt lat="46.6595048" lon="12.408608"><ele>1603.2</ele><time>2026-04-07T05:48:30.568Z</time></trkpt><trkpt lat="46.6595154" lon="12.4084694"><ele>1600.6000000000001</ele><time>2026-04-07T05:48:31.568Z</time></trkpt><trkpt lat="46.6595265" lon="12.4083318"><ele>1598.0</ele><time>2026-04-07T05:48:32.568Z</time></trkpt><trkpt lat="46.6595373" lon="12.4081958"><ele>1598.0</ele><time>2026-04-07T05:48:33.568Z</time></trkpt><trkpt lat="46.6595466" lon="12.4080584"><ele>1598.0</ele><time>2026-04-07T05:48:34.568Z</time></trkpt><trkpt lat="46.6595604" lon="12.4079221"><ele>1598.0</ele><time>2026-04-07T05:48:35.567Z</time></trkpt><trkpt lat="46.6595737" lon="12.407786"><ele>1598.0</ele><time>2026-04-07T05:48:36.568Z</time></trkpt><trkpt lat="46.6595869" lon="12.4076506"><ele>1598.0</ele><time>2026-04-07T05:48:37.568Z</time></trkpt><trkpt lat="46.6595986" lon="12.4075186"><ele>1597.8000000000002</ele><time>2026-04-07T05:48:38.567Z</time></trkpt><trkpt lat="46.659612" lon="12.4073875"><ele>1597.6</ele><time>2026-04-07T05:48:39.567Z</time></trkpt><trkpt lat="46.6596312" lon="12.4072582"><ele>1597.4</ele><time>2026-04-07T05:48:40.567Z</time></trkpt><trkpt lat="46.6596556" lon="12.4071301"><ele>1597.1999999999998</ele><time>2026-04-07T05:48:41.568Z</time></trkpt><trkpt lat="46.6596807" lon="12.4070026"><ele>1597.0</ele><time>2026-04-07T05:48:42.567Z</time></trkpt><trkpt lat="46.659712" lon="12.4068767"><ele>1597.0</ele><time>2026-04-07T05:48:43.567Z</time></trkpt><trkpt lat="46.659749" lon="12.4067547"><ele>1597.0</ele><time>2026-04-07T05:48:44.567Z</time></trkpt><trkpt lat="46.65979" lon="12.406636"><ele>1597.0</ele><time>2026-04-07T05:48:45.568Z</time></trkpt><trkpt lat="46.6598311" lon="12.4065187"><ele>1597.0</ele><time>2026-04-07T05:48:46.566Z</time></trkpt><trkpt lat="46.6598806" lon="12.4064048"><ele>1597.0</ele><time>2026-04-07T05:48:47.568Z</time></trkpt><trkpt lat="46.6599303" lon="12.4062948"><ele>1596.8</ele><time>2026-04-07T05:48:48.568Z</time></trkpt><trkpt lat="46.6599765" lon="12.4061798"><ele>1596.6</ele><time>2026-04-07T05:48:49.567Z</time></trkpt><trkpt lat="46.6600193" lon="12.4060595"><ele>1596.3999999999999</ele><time>2026-04-07T05:48:50.567Z</time></trkpt><trkpt lat="46.66006" lon="12.4059344"><ele>1596.1999999999998</ele><time>2026-04-07T05:48:51.567Z</time></trkpt><trkpt lat="46.6601004" lon="12.4058112"><ele>1596.0</ele><time>2026-04-07T05:48:52.567Z</time></trkpt><trkpt lat="46.6601378" lon="12.4056829"><ele>1596.0</ele><time>2026-04-07T05:48:53.568Z</time></trkpt><trkpt lat="46.6601731" lon="12.4055563"><ele>1596.0</ele><time>2026-04-07T05:48:54.567Z</time></trkpt><trkpt lat="46.6602049" lon="12.40543"><ele>1596.0</ele><time>2026-04-07T05:48:55.568Z</time></trkpt><trkpt lat="46.6602397" lon="12.4053027"><ele>1596.0</ele><time>2026-04-07T05:48:56.567Z</time></trkpt><trkpt lat="46.6602775" lon="12.4051802"><ele>1596.0</ele><time>2026-04-07T05:48:57.568Z</time></trkpt><trkpt lat="46.6603148" lon="12.4050555"><ele>1594.0</ele><time>2026-04-07T05:48:58.568Z</time></trkpt><trkpt lat="46.6603491" lon="12.4049304"><ele>1592.0</ele><time>2026-04-07T05:48:59.567Z</time></trkpt><trkpt lat="46.6603876" lon="12.4048073"><ele>1590.0</ele><time>2026-04-07T05:49:00.566Z</time></trkpt><trkpt lat="46.6604289" lon="12.4046865"><ele>1588.0</ele><time>2026-04-07T05:49:01.567Z</time></trkpt><trkpt lat="46.6604768" lon="12.4045706"><ele>1586.0</ele><time>2026-04-07T05:49:02.567Z</time></trkpt><trkpt lat="46.6605306" lon="12.4044629"><ele>1586.0</ele><time>2026-04-07T05:49:03.568Z</time></trkpt><trkpt lat="46.6605987" lon="12.4043671"><ele>1586.0</ele><time>2026-04-07T05:49:04.568Z</time></trkpt><trkpt lat="46.6606741" lon="12.4042768"><ele>1586.0</ele><time>2026-04-07T05:49:05.568Z</time></trkpt><trkpt lat="46.6607511" lon="12.4041887"><ele>1586.0</ele><time>2026-04-07T05:49:06.568Z</time></trkpt><trkpt lat="46.6608332" lon="12.4041109"><ele>1586.0</ele><time>2026-04-07T05:49:07.569Z</time></trkpt><trkpt lat="46.6609124" lon="12.4040294"><ele>1586.0</ele><time>2026-04-07T05:49:08.568Z</time></trkpt><trkpt lat="46.6609983" lon="12.4039472"><ele>1586.0</ele><time>2026-04-07T05:49:09.569Z</time></trkpt><trkpt lat="46.6610823" lon="12.403865"><ele>1586.0</ele><time>2026-04-07T05:49:10.569Z</time></trkpt><trkpt lat="46.6611677" lon="12.4037856"><ele>1586.0</ele><time>2026-04-07T05:49:11.568Z</time></trkpt><trkpt lat="46.6612528" lon="12.4037105"><ele>1586.0</ele><time>2026-04-07T05:49:12.567Z</time></trkpt><trkpt lat="46.6613427" lon="12.4036399"><ele>1585.6</ele><time>2026-04-07T05:49:13.569Z</time></trkpt><trkpt lat="46.6614338" lon="12.4035854"><ele>1585.1999999999998</ele><time>2026-04-07T05:49:14.567Z</time></trkpt><trkpt lat="46.6615249" lon="12.403536"><ele>1584.8000000000002</ele><time>2026-04-07T05:49:15.568Z</time></trkpt><trkpt lat="46.6616139" lon="12.4034901"><ele>1584.4</ele><time>2026-04-07T05:49:16.567Z</time></trkpt><trkpt lat="46.6617028" lon="12.4034439"><ele>1584.0</ele><time>2026-04-07T05:49:17.568Z</time></trkpt><trkpt lat="46.6617908" lon="12.403398"><ele>1584.0</ele><time>2026-04-07T05:49:18.567Z</time></trkpt><trkpt lat="46.6618736" lon="12.40335"><ele>1584.0</ele><time>2026-04-07T05:49:19.568Z</time></trkpt><trkpt lat="46.6619511" lon="12.4032863"><ele>1584.0</ele><time>2026-04-07T05:49:20.567Z</time></trkpt><trkpt lat="46.6620218" lon="12.4032108"><ele>1584.0</ele><time>2026-04-07T05:49:21.569Z</time></trkpt><trkpt lat="46.6620885" lon="12.4031226"><ele>1584.0</ele><time>2026-04-07T05:49:22.568Z</time></trkpt><trkpt lat="46.6621522" lon="12.403024"><ele>1584.0</ele><time>2026-04-07T05:49:23.569Z</time></trkpt><trkpt lat="46.6622202" lon="12.4029224"><ele>1582.2</ele><time>2026-04-07T05:49:24.569Z</time></trkpt><trkpt lat="46.6622897" lon="12.4028231"><ele>1580.4</ele><time>2026-04-07T05:49:25.568Z</time></trkpt><trkpt lat="46.6623637" lon="12.4027264"><ele>1578.6</ele><time>2026-04-07T05:49:26.568Z</time></trkpt><trkpt lat="46.6624428" lon="12.4026348"><ele>1576.8</ele><time>2026-04-07T05:49:27.568Z</time></trkpt><trkpt lat="46.6625267" lon="12.4025703"><ele>1575.0</ele><time>2026-04-07T05:49:28.568Z</time></trkpt><trkpt lat="46.6626196" lon="12.4025178"><ele>1575.0</ele><time>2026-04-07T05:49:29.568Z</time></trkpt><trkpt lat="46.6627138" lon="12.4024731"><ele>1575.0</ele><time>2026-04-07T05:49:30.567Z</time></trkpt><trkpt lat="46.662797" lon="12.4024065"><ele>1575.0</ele><time>2026-04-07T05:49:31.569Z</time></trkpt><trkpt lat="46.6628738" lon="12.4023162"><ele>1575.0</ele><time>2026-04-07T05:49:32.568Z</time></trkpt><trkpt lat="46.6629393" lon="12.4022092"><ele>1575.0</ele><time>2026-04-07T05:49:33.568Z</time></trkpt><trkpt lat="46.6629969" lon="12.4020898"><ele>1573.8</ele><time>2026-04-07T05:49:34.568Z</time></trkpt><trkpt lat="46.6630584" lon="12.401976"><ele>1572.6</ele><time>2026-04-07T05:49:35.568Z</time></trkpt><trkpt lat="46.6631234" lon="12.4018679"><ele>1571.4</ele><time>2026-04-07T05:49:36.569Z</time></trkpt><trkpt lat="46.6631984" lon="12.401775"><ele>1570.2</ele><time>2026-04-07T05:49:37.568Z</time></trkpt><trkpt lat="46.663279" lon="12.4016849"><ele>1569.0</ele><time>2026-04-07T05:49:38.569Z</time></trkpt><trkpt lat="46.6633606" lon="12.401603"><ele>1569.0</ele><time>2026-04-07T05:49:39.568Z</time></trkpt><trkpt lat="46.6634441" lon="12.4015225"><ele>1569.0</ele><time>2026-04-07T05:49:40.569Z</time></trkpt><trkpt lat="46.6635286" lon="12.4014419"><ele>1569.0</ele><time>2026-04-07T05:49:41.568Z</time></trkpt><trkpt lat="46.6636117" lon="12.401363"><ele>1569.0</ele><time>2026-04-07T05:49:42.568Z</time></trkpt><trkpt lat="46.6636927" lon="12.4012765"><ele>1569.0</ele><time>2026-04-07T05:49:43.567Z</time></trkpt><trkpt lat="46.6637649" lon="12.4011753"><ele>1567.8000000000002</ele><time>2026-04-07T05:49:44.568Z</time></trkpt><trkpt lat="46.6638327" lon="12.4010692"><ele>1566.6000000000001</ele><time>2026-04-07T05:49:45.568Z</time></trkpt><trkpt lat="46.6639015" lon="12.4009615"><ele>1565.4</ele><time>2026-04-07T05:49:46.569Z</time></trkpt><trkpt lat="46.6639751" lon="12.4008668"><ele>1564.2</ele><time>2026-04-07T05:49:47.569Z</time></trkpt><trkpt lat="46.6640558" lon="12.4007837"><ele>1563.0</ele><time>2026-04-07T05:49:48.569Z</time></trkpt><trkpt lat="46.6641385" lon="12.4007083"><ele>1563.0</ele><time>2026-04-07T05:49:49.568Z</time></trkpt><trkpt lat="46.6642228" lon="12.4006376"><ele>1563.0</ele><time>2026-04-07T05:49:50.569Z</time></trkpt><trkpt lat="46.6643077" lon="12.4005664"><ele>1563.0</ele><time>2026-04-07T05:49:51.569Z</time></trkpt></trkseg></trk></gpx>